Time,TemperatureF,DewpointF,PressureIn,WindDirection,WindDirectionDegrees,WindSpeedMPH,WindSpeedGustMPH,Humidity,HourlyPrecipIn,Conditions,Clouds,dailyrainin,SoftwareType,DateUTC
2013-05-24 00:01:00,62.1,61.5,29.92,WSW,254,1.6,2.3,98,0.00,-RA,OVC,0.00,WeatherDisplay:10.37,2013-05-24 04:01:00,
2013-05-24 00:02:00,62.1,61.5,29.92,WSW,254,0.7,2.3,98,0.00,RA,OVC,0.00,WeatherDisplay:10.37,2013-05-24 04:02:00,
2013-05-24 00:03:00,62.3,61.7,29.92,WSW,254,0.0,0.0,98,0.00,RA,OVC,0.00,WeatherDisplay:10.37,2013-05-24 04:03:00,
2013-05-24 00:06:00,62.3,61.7,29.92,WSW,254,0.0,0.0,98,0.00,RA,OVC,0.00,WeatherDisplay:10.37,2013-05-24 04:06:00,
2013-05-24 00:07:00,62.3,61.7,29.92,WSW,254,0.0,0.0,98,0.00,RA,OVC,0.00,WeatherDisplay:10.37,2013-05-24 04:07:00,
2013-05-24 00:08:00,62.3,61.7,29.92,WSW,254,0.0,0.0,98,0.00,RA,OVC,0.00,WeatherDisplay:10.37,2013-05-24 04:08:00,
2013-05-24 00:11:00,62.3,61.7,29.91,WSW,254,0.0,0.0,98,0.00,BKN,OVC,0.00,WeatherDisplay:10.37,2013-05-24 04:11:00,
2013-05-24 00:12:00,62.3,61.7,29.91,WSW,254,0.0,0.0,98,0.00,BKN,OVC,0.00,WeatherDisplay:10.37,2013-05-24 04:12:00,
2013-05-24 00:14:00,62.3,61.7,29.91,WSW,254,3.2,3.5,98,0.00,BKN,OVC,0.00,WeatherDisplay:10.37,2013-05-24 04:14:00,
2013-05-24 00:17:00,62.3,61.7,29.91,WSW,254,2.9,3.5,98,0.00,BKN,OVC,0.00,WeatherDisplay:10.37,2013-05-24 04:17:00,
2013-05-24 00:20:00,62.4,61.8,29.92,WSW,254,2.4,3.5,98,0.00,BKN,OVC,0.00,WeatherDisplay:10.37,2013-05-24 04:20:00,
2013-05-24 00:21:00,62.4,61.8,29.92,WSW,254,2.4,3.5,98,0.00,BKN,OVC,0.00,WeatherDisplay:10.37,2013-05-24 04:21:00,
2013-05-24 00:22:00,62.4,61.8,29.92,WSW,254,1.9,3.5,98,0.00,BKN,OVC,0.00,WeatherDisplay:10.37,2013-05-24 04:22:00,
2013-05-24 00:25:00,62.3,61.7,29.92,WSW,254,0.0,0.0,98,0.00,BKN,OVC,0.00,WeatherDisplay:10.37,2013-05-24 04:25:00,
2013-05-24 00:27:00,62.3,61.7,29.92,WSW,254,0.0,0.0,98,0.00,BKN,OVC,0.00,WeatherDisplay:10.37,2013-05-24 04:27:00,
2013-05-24 00:28:00,62.3,61.7,29.92,WSW,254,0.6,3.5,98,0.00,BKN,OVC,0.00,WeatherDisplay:10.37,2013-05-24 04:28:00,
2013-05-24 00:32:00,62.3,61.7,29.92,WSW,254,2.7,4.0,98,0.00,BKN,OVC,0.00,WeatherDisplay:10.37,2013-05-24 04:32:00,
2013-05-24 00:33:00,62.3,61.7,29.92,WSW,254,2.3,3.5,98,0.00,BKN,OVC,0.00,WeatherDisplay:10.37,2013-05-24 04:33:00,
2013-05-24 00:35:00,62.3,61.7,29.92,WSW,254,2.5,3.5,98,0.00,BKN,OVC,0.00,WeatherDisplay:10.37,2013-05-24 04:35:00,
2013-05-24 00:36:00,62.3,61.7,29.92,WSW,254,2.5,3.5,98,0.00,BKN,OVC,0.00,WeatherDisplay:10.37,2013-05-24 04:36:00,
2013-05-24 00:37:00,62.3,61.7,29.92,WSW,254,2.6,3.5,98,0.00,BKN,OVC,0.00,WeatherDisplay:10.37,2013-05-24 04:37:00,
2013-05-24 00:39:00,62.3,61.7,29.92,WSW,254,2.2,3.5,98,0.01,RA,OVC,0.01,WeatherDisplay:10.37,2013-05-24 04:39:00,
2013-05-24 00:40:00,62.3,61.7,29.92,WSW,254,2.2,3.5,98,0.01,RA,OVC,0.01,WeatherDisplay:10.37,2013-05-24 04:40:00,
2013-05-24 00:41:00,62.3,61.7,29.92,WSW,254,1.7,3.5,98,0.01,RA,OVC,0.01,WeatherDisplay:10.37,2013-05-24 04:41:00,
2013-05-24 00:42:00,62.3,61.7,29.92,WSW,254,1.4,2.3,98,0.01,RA,OVC,0.01,WeatherDisplay:10.37,2013-05-24 04:42:00,
2013-05-24 00:44:00,62.3,61.7,29.92,WSW,254,1.6,3.5,98,0.01,RA,OVC,0.01,WeatherDisplay:10.37,2013-05-24 04:44:00,
2013-05-24 00:45:00,62.3,61.7,29.92,WSW,254,1.8,3.0,98,0.01,RA,OVC,0.01,WeatherDisplay:10.37,2013-05-24 04:45:00,
2013-05-24 00:47:00,62.3,61.7,29.92,WSW,254,2.0,3.5,98,0.01,RA,OVC,0.01,WeatherDisplay:10.37,2013-05-24 04:47:00,
2013-05-24 00:48:00,62.3,61.7,29.92,WSW,254,1.4,3.5,98,0.01,BKN,OVC,0.01,WeatherDisplay:10.37,2013-05-24 04:48:00,
2013-05-24 00:49:00,62.3,61.7,29.92,WSW,254,2.1,3.5,98,0.01,BKN,OVC,0.01,WeatherDisplay:10.37,2013-05-24 04:49:00,
2013-05-24 00:50:00,62.3,61.7,29.92,WSW,254,2.2,3.5,98,0.01,BKN,OVC,0.01,WeatherDisplay:10.37,2013-05-24 04:50:00,
2013-05-24 00:53:00,62.3,61.7,29.92,WSW,254,2.0,3.5,98,0.01,BKN,OVC,0.01,WeatherDisplay:10.37,2013-05-24 04:53:00,
2013-05-24 00:54:00,62.3,61.7,29.92,WSW,254,1.4,2.3,98,0.01,BKN,OVC,0.01,WeatherDisplay:10.37,2013-05-24 04:54:00,
2013-05-24 00:55:00,62.3,61.7,29.92,WSW,254,0.9,2.3,98,0.01,BKN,OVC,0.01,WeatherDisplay:10.37,2013-05-24 04:55:00,
2013-05-24 00:56:00,62.3,61.7,29.92,WSW,254,0.2,2.3,98,0.01,BKN,OVC,0.01,WeatherDisplay:10.37,2013-05-24 04:56:00,
2013-05-24 00:58:00,62.3,61.7,29.92,WSW,254,1.2,3.5,98,0.01,BKN,OVC,0.01,WeatherDisplay:10.37,2013-05-24 04:58:00,
2013-05-24 01:00:00,62.3,61.7,29.92,WSW,254,0.0,0.0,98,0.01,BKN,OVC,0.01,WeatherDisplay:10.37,2013-05-24 05:00:00,
2013-05-24 01:01:00,62.3,61.7,29.92,WSW,254,0.6,2.0,98,0.01,BKN,OVC,0.01,WeatherDisplay:10.37,2013-05-24 05:01:00,
2013-05-24 01:04:00,62.3,61.7,29.92,WSW,254,0.0,0.0,98,0.01,BKN,OVC,0.01,WeatherDisplay:10.37,2013-05-24 05:04:00,
2013-05-24 01:05:00,62.3,61.7,29.92,WSW,254,0.0,0.0,98,0.01,BKN,OVC,0.01,WeatherDisplay:10.37,2013-05-24 05:05:00,
2013-05-24 01:07:00,62.3,61.7,29.92,WSW,254,0.0,0.0,98,0.01,BKN,OVC,0.01,WeatherDisplay:10.37,2013-05-24 05:07:00,
2013-05-24 01:09:00,62.3,61.7,29.92,WSW,254,3.9,4.0,98,0.01,BKN,OVC,0.01,WeatherDisplay:10.37,2013-05-24 05:09:00,
2013-05-24 01:12:00,62.1,61.5,29.92,WSW,254,3.4,4.6,98,0.01,BKN,OVC,0.01,WeatherDisplay:10.37,2013-05-24 05:12:00,
2013-05-24 01:13:00,62.1,61.5,29.92,WSW,254,3.6,4.6,98,0.01,BKN,OVC,0.01,WeatherDisplay:10.37,2013-05-24 05:13:00,
2013-05-24 01:17:00,62.1,61.5,29.92,West,260,4.6,9.2,98,0.01,BKN,OVC,0.01,WeatherDisplay:10.37,2013-05-24 05:17:00,
2013-05-24 01:18:00,62.1,61.5,29.92,West,260,4.1,5.8,98,0.01,BKN,OVC,0.01,WeatherDisplay:10.37,2013-05-24 05:18:00,
2013-05-24 01:19:00,62.1,61.5,29.92,West,260,4.2,5.8,98,0.01,BKN,OVC,0.01,WeatherDisplay:10.37,2013-05-24 05:19:00,
2013-05-24 01:20:00,62.1,61.5,29.92,West,267,5.1,9.2,98,0.01,BKN,OVC,0.01,WeatherDisplay:10.37,2013-05-24 05:20:00,
2013-05-24 01:24:00,62.1,61.5,29.92,West,267,5.2,6.0,98,0.01,BKN,OVC,0.01,WeatherDisplay:10.37,2013-05-24 05:24:00,
2013-05-24 01:25:00,62.1,61.5,29.92,West,267,5.0,5.8,98,0.01,BKN,OVC,0.01,WeatherDisplay:10.37,2013-05-24 05:25:00,
2013-05-24 01:27:00,62.1,61.5,29.92,West,268,5.2,8.1,98,0.01,BKN,OVC,0.01,WeatherDisplay:10.37,2013-05-24 05:27:00,
2013-05-24 01:29:00,62.1,61.5,29.92,West,270,5.9,6.9,98,0.01,BKN,OVC,0.01,WeatherDisplay:10.37,2013-05-24 05:29:00,
2013-05-24 01:31:00,62.1,61.5,29.92,West,271,6.0,9.2,98,0.01,BKN,OVC,0.01,WeatherDisplay:10.37,2013-05-24 05:31:00,
2013-05-24 01:33:00,62.1,61.5,29.92,West,275,6.4,10.4,98,0.01,BKN,OVC,0.01,WeatherDisplay:10.37,2013-05-24 05:33:00,
2013-05-24 01:35:00,62.1,61.5,29.92,West,275,4.6,5.8,98,0.01,BKN,OVC,0.01,WeatherDisplay:10.37,2013-05-24 05:35:00,
2013-05-24 01:36:00,62.1,61.5,29.92,West,275,5.1,6.9,98,0.01,BKN,OVC,0.01,WeatherDisplay:10.37,2013-05-24 05:36:00,
2013-05-24 01:37:00,62.1,61.5,29.92,West,277,6.0,9.2,98,0.00,BKN,OVC,0.01,WeatherDisplay:10.37,2013-05-24 05:37:00,
2013-05-24 01:38:00,62.1,61.2,29.92,West,277,3.6,9.2,97,0.00,BKN,OVC,0.01,WeatherDisplay:10.37,2013-05-24 05:38:00,
2013-05-24 01:44:00,62.1,61.2,29.92,West,281,5.7,6.9,97,0.00,BKN,OVC,0.01,WeatherDisplay:10.37,2013-05-24 05:44:00,
2013-05-24 01:45:00,62.1,61.2,29.92,West,279,5.0,10.0,97,0.00,BKN,OVC,0.01,WeatherDisplay:10.37,2013-05-24 05:45:00,
2013-05-24 01:46:00,62.1,61.2,29.92,West,281,3.9,4.6,97,0.00,BKN,OVC,0.01,WeatherDisplay:10.37,2013-05-24 05:46:00,
2013-05-24 01:49:00,62.1,61.2,29.91,WNW,284,4.3,5.8,97,0.00,BKN,OVC,0.01,WeatherDisplay:10.37,2013-05-24 05:49:00,
2013-05-24 01:50:00,62.1,61.2,29.91,WNW,284,4.6,5.8,97,0.00,BKN,OVC,0.01,WeatherDisplay:10.37,2013-05-24 05:50:00,
2013-05-24 01:51:00,62.1,61.2,29.91,WNW,284,4.8,5.8,97,0.00,BKN,OVC,0.01,WeatherDisplay:10.37,2013-05-24 05:51:00,
2013-05-24 01:52:00,62.1,61.2,29.91,WNW,284,4.7,6.0,97,0.00,BKN,OVC,0.01,WeatherDisplay:10.37,2013-05-24 05:52:00,
2013-05-24 01:55:00,62.1,60.9,29.91,WNW,284,5.4,7.0,96,0.00,BKN,OVC,0.01,WeatherDisplay:10.37,2013-05-24 05:55:00,
2013-05-24 01:57:00,62.1,60.9,29.91,WNW,284,5.5,8.1,96,0.00,BKN,OVC,0.01,WeatherDisplay:10.37,2013-05-24 05:57:00,
2013-05-24 01:58:00,62.0,60.8,29.91,WNW,284,4.8,9.2,96,0.00,BKN,OVC,0.01,WeatherDisplay:10.37,2013-05-24 05:58:00,
2013-05-24 01:59:00,62.0,60.8,29.91,WNW,289,7.1,10.4,96,0.00,BKN,OVC,0.01,WeatherDisplay:10.37,2013-05-24 05:59:00,
2013-05-24 02:02:00,62.0,60.8,29.91,WNW,298,7.6,10.4,96,0.00,BKN,OVC,0.01,WeatherDisplay:10.37,2013-05-24 06:02:00,
2013-05-24 02:03:00,62.0,60.8,29.91,WNW,298,5.2,8.1,96,0.00,BKN,OVC,0.01,WeatherDisplay:10.37,2013-05-24 06:03:00,
2013-05-24 02:04:00,62.0,60.8,29.91,WNW,298,5.7,9.2,96,0.00,BKN,OVC,0.01,WeatherDisplay:10.37,2013-05-24 06:04:00,
2013-05-24 02:05:00,62.0,60.8,29.91,WNW,298,5.6,9.2,96,0.00,BKN,OVC,0.01,WeatherDisplay:10.37,2013-05-24 06:05:00,
2013-05-24 02:07:00,62.0,60.8,29.90,WNW,298,6.8,9.0,96,0.00,BKN,OVC,0.01,WeatherDisplay:10.37,2013-05-24 06:07:00,
2013-05-24 02:09:00,62.0,60.8,29.90,WNW,298,5.8,6.9,96,0.00,BKN,OVC,0.01,WeatherDisplay:10.37,2013-05-24 06:09:00,
2013-05-24 02:10:00,61.8,60.6,29.90,WNW,298,5.5,6.9,96,0.00,BKN,OVC,0.01,WeatherDisplay:10.37,2013-05-24 06:10:00,
2013-05-24 02:11:00,61.8,60.6,29.90,WNW,298,5.5,6.0,96,0.00,BKN,OVC,0.01,WeatherDisplay:10.37,2013-05-24 06:11:00,
2013-05-24 02:12:00,61.8,60.6,29.90,WNW,298,6.2,9.2,96,0.00,BKN,OVC,0.01,WeatherDisplay:10.37,2013-05-24 06:12:00,
2013-05-24 02:15:00,61.8,60.6,29.90,WNW,298,5.6,8.1,96,0.00,BKN,OVC,0.01,WeatherDisplay:10.37,2013-05-24 06:15:00,
2013-05-24 02:16:00,61.8,60.6,29.90,WNW,298,5.6,6.9,96,0.00,BKN,OVC,0.01,WeatherDisplay:10.37,2013-05-24 06:16:00,
2013-05-24 02:17:00,61.8,60.6,29.90,WNW,298,6.6,8.0,96,0.00,BKN,OVC,0.01,WeatherDisplay:10.37,2013-05-24 06:17:00,
2013-05-24 02:20:00,61.6,60.4,29.90,WNW,298,6.5,10.0,96,0.00,BKN,OVC,0.01,WeatherDisplay:10.37,2013-05-24 06:20:00,
2013-05-24 02:21:00,61.6,60.4,29.90,WNW,298,7.0,10.4,96,0.00,BKN,OVC,0.01,WeatherDisplay:10.37,2013-05-24 06:21:00,
2013-05-24 02:22:00,61.6,60.4,29.89,WNW,298,4.8,10.4,96,0.00,BKN,OVC,0.01,WeatherDisplay:10.37,2013-05-24 06:22:00,
2013-05-24 02:26:00,61.6,60.2,29.89,WNW,298,6.1,9.2,95,0.00,BKN,OVC,0.01,WeatherDisplay:10.37,2013-05-24 06:26:00,
2013-05-24 02:27:00,61.6,60.2,29.89,WNW,298,5.8,6.9,95,0.00,BKN,OVC,0.01,WeatherDisplay:10.37,2013-05-24 06:27:00,
2013-05-24 02:29:00,61.6,60.2,29.89,WNW,297,5.5,6.9,95,0.00,BKN,OVC,0.01,WeatherDisplay:10.37,2013-05-24 06:29:00,
2013-05-24 02:30:00,61.6,60.2,29.89,WNW,297,5.0,9.0,95,0.00,BKN,OVC,0.01,WeatherDisplay:10.37,2013-05-24 06:30:00,
2013-05-24 02:31:00,61.6,60.2,29.89,WNW,297,5.8,9.2,95,0.00,BKN,OVC,0.01,WeatherDisplay:10.37,2013-05-24 06:31:00,
2013-05-24 02:34:00,61.5,60.1,29.89,WNW,297,6.0,6.9,95,0.00,BKN,OVC,0.01,WeatherDisplay:10.37,2013-05-24 06:34:00,
2013-05-24 02:35:00,61.5,60.1,29.89,WNW,297,5.8,6.9,95,0.00,BKN,OVC,0.01,WeatherDisplay:10.37,2013-05-24 06:35:00,
2013-05-24 02:36:00,61.5,60.1,29.89,WNW,297,5.5,6.9,95,0.00,BKN,OVC,0.01,WeatherDisplay:10.37,2013-05-24 06:36:00,
2013-05-24 02:39:00,61.5,60.1,29.89,WNW,298,5.8,9.2,95,0.00,BKN,OVC,0.01,WeatherDisplay:10.37,2013-05-24 06:39:00,
2013-05-24 02:40:00,61.5,60.1,29.89,WNW,298,5.6,6.9,95,0.00,BKN,OVC,0.01,WeatherDisplay:10.37,2013-05-24 06:40:00,
2013-05-24 02:41:00,61.5,59.8,29.89,WNW,298,5.9,6.9,94,0.00,BKN,OVC,0.01,WeatherDisplay:10.37,2013-05-24 06:41:00,
2013-05-24 02:42:00,61.5,59.8,29.89,WNW,296,6.4,6.9,94,0.00,BKN,OVC,0.01,WeatherDisplay:10.37,2013-05-24 06:42:00,
2013-05-24 02:44:00,61.5,59.8,29.89,WNW,296,5.5,8.1,94,0.00,BKN,OVC,0.01,WeatherDisplay:10.37,2013-05-24 06:44:00,
2013-05-24 02:45:00,61.5,59.8,29.89,WNW,297,6.0,10.0,94,0.00,BKN,OVC,0.01,WeatherDisplay:10.37,2013-05-24 06:45:00,
2013-05-24 02:46:00,61.5,59.8,29.89,WNW,296,6.2,10.4,94,0.00,BKN,OVC,0.01,WeatherDisplay:10.37,2013-05-24 06:46:00,
2013-05-24 02:47:00,61.5,59.8,29.89,WNW,296,5.6,8.1,94,0.00,BKN,OVC,0.01,WeatherDisplay:10.37,2013-05-24 06:47:00,
2013-05-24 02:48:00,61.5,59.8,29.89,WNW,294,6.1,11.0,94,0.00,BKN,OVC,0.01,WeatherDisplay:10.37,2013-05-24 06:48:00,
2013-05-24 02:49:00,61.5,59.8,29.89,WNW,296,6.2,11.5,94,0.00,BKN,OVC,0.01,WeatherDisplay:10.37,2013-05-24 06:49:00,
2013-05-24 02:51:00,61.5,59.5,29.89,WNW,295,6.4,8.1,93,0.00,BKN,OVC,0.01,WeatherDisplay:10.37,2013-05-24 06:51:00,
2013-05-24 02:52:00,61.3,59.3,29.89,WNW,296,6.7,9.2,93,0.00,BKN,OVC,0.01,WeatherDisplay:10.37,2013-05-24 06:52:00,
2013-05-24 02:53:00,61.3,59.3,29.89,WNW,300,6.5,9.0,93,0.00,BKN,OVC,0.01,WeatherDisplay:10.37,2013-05-24 06:53:00,
2013-05-24 02:55:00,61.3,59.3,29.89,WNW,300,5.9,8.1,93,0.00,BKN,OVC,0.01,WeatherDisplay:10.37,2013-05-24 06:55:00,
2013-05-24 02:56:00,61.3,59.0,29.89,WNW,302,6.7,9.2,92,0.00,BKN,OVC,0.01,WeatherDisplay:10.37,2013-05-24 06:56:00,
2013-05-24 02:57:00,61.3,59.0,29.89,WNW,300,8.1,10.4,92,0.00,BKN,OVC,0.01,WeatherDisplay:10.37,2013-05-24 06:57:00,
2013-05-24 02:59:00,61.5,59.2,29.89,NW,305,9.6,11.5,92,0.00,BKN,OVC,0.01,WeatherDisplay:10.37,2013-05-24 06:59:00,
2013-05-24 03:02:00,61.5,58.8,29.89,NW,305,6.2,10.4,91,0.00,CLR,OVC,0.01,WeatherDisplay:10.37,2013-05-24 07:02:00,
2013-05-24 03:03:00,61.5,58.8,29.89,WNW,287,6.5,10.4,91,0.00,CLR,OVC,0.01,WeatherDisplay:10.37,2013-05-24 07:03:00,
2013-05-24 03:04:00,61.6,58.9,29.89,WNW,287,5.1,6.9,91,0.00,CLR,OVC,0.01,WeatherDisplay:10.37,2013-05-24 07:04:00,
2013-05-24 03:05:00,61.6,58.9,29.89,WNW,288,5.5,9.0,91,0.00,CLR,OVC,0.01,WeatherDisplay:10.37,2013-05-24 07:05:00,
2013-05-24 03:07:00,61.5,58.5,29.89,WNW,288,5.5,6.9,90,0.00,CLR,OVC,0.01,WeatherDisplay:10.37,2013-05-24 07:07:00,
2013-05-24 03:09:00,61.5,58.5,29.89,WNW,292,5.5,9.2,90,0.00,CLR,OVC,0.01,WeatherDisplay:10.37,2013-05-24 07:09:00,
2013-05-24 03:11:00,61.5,58.2,29.89,WNW,292,5.1,6.9,89,0.00,CLR,OVC,0.01,WeatherDisplay:10.37,2013-05-24 07:11:00,
2013-05-24 03:12:00,61.5,58.2,29.89,WNW,292,4.7,6.9,89,0.00,CLR,OVC,0.01,WeatherDisplay:10.37,2013-05-24 07:12:00,
2013-05-24 03:13:00,61.5,58.2,29.89,WNW,292,4.6,5.8,89,0.00,CLR,OVC,0.01,WeatherDisplay:10.37,2013-05-24 07:13:00,
2013-05-24 03:14:00,61.5,58.2,29.89,WNW,292,4.7,5.8,89,0.00,CLR,OVC,0.01,WeatherDisplay:10.37,2013-05-24 07:14:00,
2013-05-24 03:15:00,61.5,58.2,29.89,WNW,292,4.2,5.8,89,0.00,CLR,OVC,0.01,WeatherDisplay:10.37,2013-05-24 07:15:00,
2013-05-24 03:18:00,61.3,58.0,29.89,WNW,292,5.0,6.9,89,0.00,CLR,OVC,0.01,WeatherDisplay:10.37,2013-05-24 07:18:00,
2013-05-24 03:20:00,61.2,57.9,29.89,WNW,292,5.2,5.8,89,0.00,CLR,OVC,0.01,WeatherDisplay:10.37,2013-05-24 07:20:00,
2013-05-24 03:21:00,61.2,57.9,29.89,WNW,292,5.0,5.8,89,0.00,CLR,OVC,0.01,WeatherDisplay:10.37,2013-05-24 07:21:00,
2013-05-24 03:23:00,61.2,58.2,29.89,WNW,292,4.4,5.0,90,0.00,CLR,OVC,0.01,WeatherDisplay:10.37,2013-05-24 07:23:00,
2013-05-24 03:24:00,61.0,58.0,29.89,WNW,292,4.6,4.6,90,0.00,CLR,OVC,0.01,WeatherDisplay:10.37,2013-05-24 07:24:00,
2013-05-24 03:26:00,61.0,58.0,29.89,WNW,292,4.3,5.8,90,0.00,CLR,OVC,0.01,WeatherDisplay:10.37,2013-05-24 07:26:00,
2013-05-24 03:27:00,60.9,57.9,29.89,WNW,292,4.1,5.0,90,0.00,CLR,OVC,0.01,WeatherDisplay:10.37,2013-05-24 07:27:00,
2013-05-24 03:29:00,60.9,57.9,29.89,WNW,292,4.0,5.0,90,0.00,CLR,OVC,0.01,WeatherDisplay:10.37,2013-05-24 07:29:00,
2013-05-24 03:30:00,60.9,57.9,29.89,WNW,292,4.4,4.6,90,0.00,CLR,OVC,0.01,WeatherDisplay:10.37,2013-05-24 07:30:00,
2013-05-24 03:31:00,60.9,57.9,29.89,WNW,292,4.5,5.8,90,0.00,CLR,OVC,0.01,WeatherDisplay:10.37,2013-05-24 07:31:00,
2013-05-24 03:32:00,60.7,57.7,29.89,WNW,292,4.5,5.8,90,0.00,CLR,OVC,0.01,WeatherDisplay:10.37,2013-05-24 07:32:00,
2013-05-24 03:35:00,60.7,57.7,29.89,WNW,292,4.5,5.0,90,0.00,CLR,OVC,0.01,WeatherDisplay:10.37,2013-05-24 07:35:00,
2013-05-24 03:37:00,60.7,57.7,29.89,WNW,292,3.6,3.6,90,0.00,CLR,OVC,0.01,WeatherDisplay:10.37,2013-05-24 07:37:00,
2013-05-24 03:38:00,60.7,57.7,29.89,WNW,292,3.4,4.0,90,0.00,CLR,OVC,0.01,WeatherDisplay:10.37,2013-05-24 07:38:00,
2013-05-24 03:40:00,60.5,57.9,29.89,WNW,292,3.5,4.0,91,0.00,CLR,OVC,0.01,WeatherDisplay:10.37,2013-05-24 07:40:00,
2013-05-24 03:43:00,60.5,57.9,29.89,WNW,292,3.1,3.5,91,0.00,CLR,OVC,0.01,WeatherDisplay:10.37,2013-05-24 07:43:00,
2013-05-24 03:44:00,60.5,57.9,29.89,WNW,292,3.0,3.5,91,0.00,CLR,OVC,0.01,WeatherDisplay:10.37,2013-05-24 07:44:00,
2013-05-24 03:45:00,60.5,57.9,29.89,WNW,292,3.0,6.0,91,0.00,CLR,OVC,0.01,WeatherDisplay:10.37,2013-05-24 07:45:00,
2013-05-24 03:46:00,60.5,57.9,29.89,WNW,292,2.9,4.0,91,0.00,CLR,OVC,0.01,WeatherDisplay:10.37,2013-05-24 07:46:00,
2013-05-24 03:49:00,60.4,57.8,29.89,WNW,292,3.7,4.6,91,0.00,CLR,OVC,0.01,WeatherDisplay:10.37,2013-05-24 07:49:00,
2013-05-24 03:51:00,60.4,57.8,29.89,WNW,292,3.9,4.6,91,0.00,CLR,OVC,0.01,WeatherDisplay:10.37,2013-05-24 07:51:00,
2013-05-24 03:52:00,60.4,57.8,29.89,WNW,292,3.6,4.0,91,0.00,CLR,OVC,0.01,WeatherDisplay:10.37,2013-05-24 07:52:00,
2013-05-24 03:55:00,60.4,57.8,29.89,WNW,292,3.7,4.0,91,0.00,CLR,OVC,0.01,WeatherDisplay:10.37,2013-05-24 07:55:00,
2013-05-24 03:57:00,60.4,57.8,29.89,WNW,292,3.6,4.6,91,0.00,CLR,OVC,0.01,WeatherDisplay:10.37,2013-05-24 07:57:00,
2013-05-24 03:58:00,60.4,57.8,29.89,WNW,292,3.9,4.6,91,0.00,CLR,OVC,0.01,WeatherDisplay:10.37,2013-05-24 07:58:00,
2013-05-24 04:02:00,60.1,57.5,29.89,WNW,292,4.2,5.0,91,0.00,FEW,OVC,0.01,WeatherDisplay:10.37,2013-05-24 08:02:00,
2013-05-24 04:03:00,60.1,57.5,29.89,WNW,292,4.9,6.0,91,0.00,FEW,OVC,0.01,WeatherDisplay:10.37,2013-05-24 08:03:00,
2013-05-24 04:06:00,59.9,57.6,29.89,WNW,292,4.7,5.8,92,0.00,FEW,OVC,0.01,WeatherDisplay:10.37,2013-05-24 08:06:00,
2013-05-24 04:08:00,59.8,57.5,29.89,WNW,292,4.6,5.8,92,0.00,FEW,OVC,0.01,WeatherDisplay:10.37,2013-05-24 08:08:00,
2013-05-24 04:09:00,59.8,57.5,29.89,WNW,292,4.2,5.8,92,0.00,FEW,OVC,0.01,WeatherDisplay:10.37,2013-05-24 08:09:00,
2013-05-24 04:10:00,59.8,57.5,29.89,WNW,292,4.0,4.6,92,0.00,FEW,OVC,0.01,WeatherDisplay:10.37,2013-05-24 08:10:00,
2013-05-24 04:11:00,59.8,57.5,29.89,WNW,292,3.3,4.6,92,0.00,FEW,OVC,0.01,WeatherDisplay:10.37,2013-05-24 08:11:00,
2013-05-24 04:13:00,59.8,57.5,29.89,WNW,292,3.2,3.5,92,0.00,FEW,OVC,0.01,WeatherDisplay:10.37,2013-05-24 08:13:00,
2013-05-24 04:15:00,59.8,57.5,29.89,WNW,292,3.0,6.0,92,0.00,FEW,OVC,0.01,WeatherDisplay:10.37,2013-05-24 08:15:00,
2013-05-24 04:16:00,59.8,57.5,29.89,WNW,292,3.1,4.0,92,0.00,FEW,OVC,0.01,WeatherDisplay:10.37,2013-05-24 08:16:00,
2013-05-24 04:20:00,59.6,57.3,29.89,WNW,292,2.8,3.5,92,0.00,FEW,OVC,0.01,WeatherDisplay:10.37,2013-05-24 08:20:00,
2013-05-24 04:21:00,59.6,57.3,29.90,WNW,292,2.4,3.5,92,0.00,FEW,OVC,0.01,WeatherDisplay:10.37,2013-05-24 08:21:00,
2013-05-24 04:22:00,59.6,57.3,29.90,WNW,292,2.0,3.5,92,0.00,FEW,OVC,0.01,WeatherDisplay:10.37,2013-05-24 08:22:00,
2013-05-24 04:23:00,59.6,57.3,29.90,WNW,292,2.4,3.5,92,0.00,FEW,OVC,0.01,WeatherDisplay:10.37,2013-05-24 08:23:00,
2013-05-24 04:26:00,59.6,57.3,29.90,WNW,292,3.3,3.5,92,0.00,FEW,OVC,0.01,WeatherDisplay:10.37,2013-05-24 08:26:00,
2013-05-24 04:27:00,59.6,57.3,29.90,WNW,292,3.1,3.5,92,0.00,FEW,OVC,0.01,WeatherDisplay:10.37,2013-05-24 08:27:00,
2013-05-24 04:28:00,59.6,57.3,29.90,WNW,292,3.1,4.0,92,0.00,FEW,OVC,0.01,WeatherDisplay:10.37,2013-05-24 08:28:00,
2013-05-24 04:30:00,59.6,57.3,29.90,WNW,292,2.9,4.0,92,0.00,FEW,OVC,0.01,WeatherDisplay:10.37,2013-05-24 08:30:00,
2013-05-24 04:33:00,59.5,57.2,29.90,WNW,292,3.0,3.5,92,0.00,FEW,OVC,0.01,WeatherDisplay:10.37,2013-05-24 08:33:00,
2013-05-24 04:34:00,59.5,57.2,29.90,WNW,292,3.4,4.0,92,0.00,FEW,OVC,0.01,WeatherDisplay:10.37,2013-05-24 08:34:00,
2013-05-24 04:35:00,59.5,57.2,29.90,WNW,292,3.2,4.0,92,0.00,FEW,OVC,0.01,WeatherDisplay:10.37,2013-05-24 08:35:00,
2013-05-24 04:36:00,59.5,57.2,29.90,WNW,292,3.5,5.0,92,0.00,FEW,OVC,0.01,WeatherDisplay:10.37,2013-05-24 08:36:00,
2013-05-24 04:37:00,59.5,57.2,29.91,WNW,292,3.4,4.6,92,0.00,FEW,OVC,0.01,WeatherDisplay:10.37,2013-05-24 08:37:00,
2013-05-24 04:40:00,59.3,57.0,29.91,WNW,292,2.6,4.6,92,0.00,FEW,OVC,0.01,WeatherDisplay:10.37,2013-05-24 08:40:00,
2013-05-24 04:42:00,59.3,57.0,29.91,WNW,292,2.8,3.5,92,0.00,FEW,OVC,0.01,WeatherDisplay:10.37,2013-05-24 08:42:00,
2013-05-24 04:43:00,59.3,57.0,29.91,WNW,292,2.8,3.5,92,0.00,FEW,OVC,0.01,WeatherDisplay:10.37,2013-05-24 08:43:00,
2013-05-24 04:45:00,59.3,56.9,29.91,WNW,292,2.0,5.0,92,0.00,FEW,OVC,0.01,WeatherDisplay:10.37,2013-05-24 08:45:00,
2013-05-24 04:47:00,59.2,56.9,29.91,WNW,292,2.8,3.5,92,0.00,FEW,OVC,0.01,WeatherDisplay:10.37,2013-05-24 08:47:00,
2013-05-24 04:49:00,59.2,56.9,29.91,WNW,292,3.2,4.0,92,0.00,FEW,OVC,0.01,WeatherDisplay:10.37,2013-05-24 08:49:00,
2013-05-24 04:51:00,59.2,56.9,29.90,WNW,292,3.0,3.5,92,0.00,FEW,OVC,0.01,WeatherDisplay:10.37,2013-05-24 08:51:00,
2013-05-24 04:52:00,59.0,56.7,29.90,WNW,292,2.8,3.5,92,0.00,FEW,OVC,0.01,WeatherDisplay:10.37,2013-05-24 08:52:00,
2013-05-24 04:54:00,59.0,56.7,29.90,WNW,292,2.7,3.5,92,0.00,FEW,OVC,0.01,WeatherDisplay:10.37,2013-05-24 08:54:00,
2013-05-24 04:55:00,59.0,56.7,29.90,WNW,292,2.4,3.5,92,0.00,FEW,OVC,0.01,WeatherDisplay:10.37,2013-05-24 08:55:00,
2013-05-24 04:56:00,59.0,57.6,29.90,WNW,292,2.8,4.0,95,0.00,FEW,OVC,0.01,WeatherDisplay:10.37,2013-05-24 08:56:00,
2013-05-24 04:57:00,59.0,56.7,29.90,WNW,292,2.9,3.5,92,0.00,FEW,OVC,0.01,WeatherDisplay:10.37,2013-05-24 08:57:00,
2013-05-24 05:00:00,59.0,56.7,29.90,WNW,292,2.5,4.0,92,0.00,FEW,OVC,0.01,WeatherDisplay:10.37,2013-05-24 09:00:00,
2013-05-24 05:02:00,59.0,56.7,29.90,WNW,292,2.5,3.5,92,0.00,FEW,OVC,0.01,WeatherDisplay:10.37,2013-05-24 09:02:00,
2013-05-24 05:03:00,58.9,56.6,29.90,WNW,292,2.9,3.5,92,0.00,FEW,OVC,0.01,WeatherDisplay:10.37,2013-05-24 09:03:00,
2013-05-24 05:04:00,58.9,56.6,29.90,WNW,292,2.4,3.5,92,0.00,FEW,OVC,0.01,WeatherDisplay:10.37,2013-05-24 09:04:00,
2013-05-24 05:05:00,58.9,56.6,29.90,WNW,292,2.7,3.5,92,0.00,FEW,OVC,0.01,WeatherDisplay:10.37,2013-05-24 09:05:00,
2013-05-24 05:07:00,58.7,56.7,29.90,WNW,292,3.5,4.0,93,0.00,FEW,OVC,0.01,WeatherDisplay:10.37,2013-05-24 09:07:00,
2013-05-24 05:08:00,58.7,56.7,29.90,WNW,292,3.8,4.0,93,0.00,FEW,OVC,0.01,WeatherDisplay:10.37,2013-05-24 09:08:00,
2013-05-24 05:10:00,58.7,56.7,29.90,WNW,292,3.9,4.6,93,0.00,FEW,OVC,0.01,WeatherDisplay:10.37,2013-05-24 09:10:00,
2013-05-24 05:11:00,58.7,56.7,29.90,WNW,292,4.5,4.6,93,0.00,FEW,OVC,0.01,WeatherDisplay:10.37,2013-05-24 09:11:00,
2013-05-24 05:12:00,58.7,56.7,29.90,WNW,292,4.5,5.0,93,0.00,FEW,OVC,0.01,WeatherDisplay:10.37,2013-05-24 09:12:00,
2013-05-24 05:15:00,58.7,56.4,29.90,WNW,292,3.9,4.6,92,0.00,FEW,OVC,0.01,WeatherDisplay:10.37,2013-05-24 09:15:00,
2013-05-24 05:16:00,58.6,56.3,29.90,WNW,292,3.7,4.6,92,0.00,FEW,OVC,0.01,WeatherDisplay:10.37,2013-05-24 09:16:00,
2013-05-24 05:19:00,58.6,56.3,29.91,WNW,292,2.0,3.5,92,0.00,FEW,OVC,0.01,WeatherDisplay:10.37,2013-05-24 09:19:00,
2013-05-24 05:20:00,58.4,56.1,29.91,WNW,292,2.2,3.5,92,0.00,FEW,OVC,0.01,WeatherDisplay:10.37,2013-05-24 09:20:00,
2013-05-24 05:21:00,58.4,56.1,29.90,WNW,292,1.8,3.5,92,0.00,FEW,OVC,0.01,WeatherDisplay:10.37,2013-05-24 09:21:00,
2013-05-24 05:24:00,58.3,56.3,29.90,WNW,292,0.0,2.3,93,0.00,FEW,OVC,0.01,WeatherDisplay:10.37,2013-05-24 09:24:00,
2013-05-24 05:25:00,58.3,56.3,29.90,WNW,292,0.0,0.0,93,0.00,FEW,OVC,0.01,WeatherDisplay:10.37,2013-05-24 09:25:00,
2013-05-24 05:26:00,58.3,56.3,29.90,WNW,292,0.0,0.0,93,0.00,FEW,OVC,0.01,WeatherDisplay:10.37,2013-05-24 09:26:00,
2013-05-24 05:29:00,58.1,56.1,29.90,WNW,292,0.0,0.0,93,0.00,FEW,OVC,0.01,WeatherDisplay:10.37,2013-05-24 09:29:00,
2013-05-24 05:30:00,58.1,56.1,29.90,WNW,292,0.0,0.0,93,0.00,FEW,OVC,0.01,WeatherDisplay:10.37,2013-05-24 09:30:00,
2013-05-24 05:32:00,58.1,56.1,29.90,WNW,292,0.0,0.0,93,0.00,FEW,OVC,0.01,WeatherDisplay:10.37,2013-05-24 09:32:00,
2013-05-24 05:34:00,58.1,56.4,29.90,WNW,292,0.0,0.0,94,0.00,FEW,OVC,0.01,WeatherDisplay:10.37,2013-05-24 09:34:00,
2013-05-24 05:35:00,58.1,56.4,29.90,WNW,292,0.0,0.0,94,0.00,FEW,OVC,0.01,WeatherDisplay:10.37,2013-05-24 09:35:00,
2013-05-24 05:36:00,58.1,56.4,29.90,WNW,292,0.0,0.0,94,0.00,FEW,OVC,0.01,WeatherDisplay:10.37,2013-05-24 09:36:00,
2013-05-24 05:37:00,58.1,56.4,29.91,WNW,292,0.0,0.0,94,0.00,FEW,OVC,0.01,WeatherDisplay:10.37,2013-05-24 09:37:00,
2013-05-24 05:38:00,58.1,56.4,29.91,WNW,292,0.0,0.0,94,0.00,FEW,OVC,0.01,WeatherDisplay:10.37,2013-05-24 09:38:00,
2013-05-24 05:41:00,58.1,56.4,29.91,WNW,292,0.0,0.0,94,0.00,FEW,OVC,0.01,WeatherDisplay:10.37,2013-05-24 09:41:00,
2013-05-24 05:42:00,58.1,56.4,29.91,WNW,292,0.0,0.0,94,0.00,FEW,OVC,0.01,WeatherDisplay:10.37,2013-05-24 09:42:00,
2013-05-24 05:43:00,58.1,56.4,29.91,WNW,292,0.0,0.0,94,0.00,FEW,OVC,0.01,WeatherDisplay:10.37,2013-05-24 09:43:00,
2013-05-24 05:46:00,58.1,56.4,29.91,WNW,292,0.0,0.0,94,0.00,FEW,OVC,0.01,WeatherDisplay:10.37,2013-05-24 09:46:00,
2013-05-24 05:48:00,58.0,56.3,29.91,WNW,292,0.0,0.0,94,0.00,FEW,OVC,0.01,WeatherDisplay:10.37,2013-05-24 09:48:00,
2013-05-24 05:53:00,58.0,56.6,29.91,WNW,292,0.0,0.0,95,0.00,FEW,OVC,0.01,WeatherDisplay:10.37,2013-05-24 09:53:00,
2013-05-24 05:54:00,58.0,56.6,29.92,WNW,292,0.0,0.0,95,0.00,FEW,OVC,0.01,WeatherDisplay:10.37,2013-05-24 09:54:00,
2013-05-24 05:55:00,58.0,56.6,29.92,WNW,292,0.0,0.0,95,0.00,FEW,OVC,0.01,WeatherDisplay:10.37,2013-05-24 09:55:00,
2013-05-24 05:57:00,58.0,56.6,29.92,WNW,292,0.0,0.0,95,0.00,FEW,OVC,0.01,WeatherDisplay:10.37,2013-05-24 09:57:00,
2013-05-24 05:59:00,57.8,56.4,29.91,WNW,292,0.5,3.0,95,0.00,FEW,OVC,0.01,WeatherDisplay:10.37,2013-05-24 09:59:00,
2013-05-24 06:01:00,57.8,56.4,29.91,WNW,292,3.9,4.0,95,0.00,FEW,OVC,0.01,WeatherDisplay:10.37,2013-05-24 10:01:00,
2013-05-24 06:02:00,57.8,56.4,29.91,WNW,292,2.6,3.5,95,0.00,FEW,OVC,0.01,WeatherDisplay:10.37,2013-05-24 10:02:00,
2013-05-24 06:03:00,57.5,56.1,29.91,WNW,292,2.3,3.5,95,0.00,FEW,OVC,0.01,WeatherDisplay:10.37,2013-05-24 10:03:00,
2013-05-24 06:07:00,57.0,55.6,29.92,WNW,292,2.8,4.0,95,0.00,FEW,OVC,0.01,WeatherDisplay:10.37,2013-05-24 10:07:00,
2013-05-24 06:08:00,57.0,55.6,29.92,WNW,292,3.4,4.0,95,0.00,FEW,OVC,0.01,WeatherDisplay:10.37,2013-05-24 10:08:00,
2013-05-24 06:09:00,57.0,55.6,29.92,WNW,292,3.6,4.6,95,0.00,FEW,OVC,0.01,WeatherDisplay:10.37,2013-05-24 10:09:00,
2013-05-24 06:11:00,57.0,55.9,29.92,WNW,292,4.4,5.8,96,0.00,FEW,OVC,0.01,WeatherDisplay:10.37,2013-05-24 10:11:00,
2013-05-24 06:13:00,57.2,56.1,29.92,WNW,292,4.8,5.8,96,0.00,FEW,OVC,0.01,WeatherDisplay:10.37,2013-05-24 10:13:00,
2013-05-24 06:14:00,57.3,56.2,29.92,WNW,292,4.6,5.0,96,0.00,FEW,OVC,0.01,WeatherDisplay:10.37,2013-05-24 10:14:00,
2013-05-24 06:15:00,57.3,56.2,29.92,WNW,292,4.3,4.6,96,0.00,FEW,OVC,0.01,WeatherDisplay:10.37,2013-05-24 10:15:00,
2013-05-24 06:16:00,57.3,56.2,29.92,WNW,292,3.9,5.0,96,0.00,FEW,OVC,0.01,WeatherDisplay:10.37,2013-05-24 10:16:00,
2013-05-24 06:17:00,57.3,56.2,29.92,WNW,292,4.1,4.1,96,0.00,FEW,OVC,0.01,WeatherDisplay:10.37,2013-05-24 10:17:00,
2013-05-24 06:18:00,57.5,56.4,29.92,WNW,292,4.0,4.6,96,0.00,FEW,OVC,0.01,WeatherDisplay:10.37,2013-05-24 10:18:00,
2013-05-24 06:22:00,57.6,56.5,29.92,WNW,292,2.8,3.5,96,0.00,FEW,OVC,0.01,WeatherDisplay:10.37,2013-05-24 10:22:00,
2013-05-24 06:23:00,57.5,56.4,29.92,WNW,292,2.3,3.5,96,0.00,FEW,OVC,0.01,WeatherDisplay:10.37,2013-05-24 10:23:00,
2013-05-24 06:25:00,57.5,56.4,29.92,WNW,292,2.9,3.5,96,0.00,FEW,OVC,0.01,WeatherDisplay:10.37,2013-05-24 10:25:00,
2013-05-24 06:27:00,57.5,56.4,29.92,WNW,292,2.9,4.0,96,0.00,FEW,OVC,0.01,WeatherDisplay:10.37,2013-05-24 10:27:00,
2013-05-24 06:28:00,57.5,56.4,29.92,WNW,292,2.8,3.5,96,0.00,FEW,OVC,0.01,WeatherDisplay:10.37,2013-05-24 10:28:00,
2013-05-24 06:30:00,57.5,56.4,29.92,WNW,292,3.1,3.5,96,0.00,FEW,OVC,0.01,WeatherDisplay:10.37,2013-05-24 10:30:00,
2013-05-24 06:31:00,57.5,56.4,29.92,WNW,292,2.5,3.5,96,0.00,FEW,OVC,0.01,WeatherDisplay:10.37,2013-05-24 10:31:00,
2013-05-24 06:32:00,57.5,56.4,29.92,WNW,292,2.4,3.5,96,0.00,FEW,OVC,0.01,WeatherDisplay:10.37,2013-05-24 10:32:00,
2013-05-24 06:33:00,57.5,56.4,29.92,WNW,292,2.4,4.0,96,0.00,FEW,OVC,0.01,WeatherDisplay:10.37,2013-05-24 10:33:00,
2013-05-24 06:36:00,57.5,56.4,29.92,WNW,292,3.5,4.6,96,0.00,FEW,OVC,0.01,WeatherDisplay:10.37,2013-05-24 10:36:00,
2013-05-24 06:38:00,57.5,56.4,29.92,WNW,292,4.1,4.1,96,0.00,FEW,OVC,0.01,WeatherDisplay:10.37,2013-05-24 10:38:00,
2013-05-24 06:39:00,57.6,56.8,29.92,WNW,292,3.9,5.0,97,0.00,FEW,OVC,0.01,WeatherDisplay:10.37,2013-05-24 10:39:00,
2013-05-24 06:40:00,57.6,56.8,29.92,WNW,292,4.2,5.0,97,0.00,FEW,OVC,0.01,WeatherDisplay:10.37,2013-05-24 10:40:00,
2013-05-24 06:42:00,57.8,57.0,29.92,WNW,292,5.5,7.0,97,0.00,FEW,OVC,0.01,WeatherDisplay:10.37,2013-05-24 10:42:00,
2013-05-24 06:43:00,57.8,57.0,29.92,WNW,292,5.0,6.0,97,0.00,FEW,OVC,0.01,WeatherDisplay:10.37,2013-05-24 10:43:00,
2013-05-24 06:44:00,57.8,57.0,29.92,WNW,292,5.4,7.0,97,0.00,FEW,OVC,0.01,WeatherDisplay:10.37,2013-05-24 10:44:00,
2013-05-24 06:45:00,57.8,57.0,29.92,WNW,292,4.8,6.9,97,0.00,FEW,OVC,0.01,WeatherDisplay:10.37,2013-05-24 10:45:00,
2013-05-24 06:46:00,58.0,57.2,29.92,WNW,292,4.6,6.0,97,0.00,FEW,OVC,0.01,WeatherDisplay:10.37,2013-05-24 10:46:00,
2013-05-24 06:48:00,58.0,57.2,29.92,WNW,292,4.3,5.8,97,0.00,FEW,OVC,0.01,WeatherDisplay:10.37,2013-05-24 10:48:00,
2013-05-24 06:50:00,58.0,56.9,29.92,WNW,292,4.3,6.0,96,0.00,FEW,OVC,0.01,WeatherDisplay:10.37,2013-05-24 10:50:00,
2013-05-24 06:51:00,58.0,56.9,29.92,WNW,292,5.1,6.9,96,0.00,FEW,OVC,0.01,WeatherDisplay:10.37,2013-05-24 10:51:00,
2013-05-24 06:53:00,58.0,56.9,29.92,WNW,292,4.1,5.8,96,0.00,FEW,OVC,0.01,WeatherDisplay:10.37,2013-05-24 10:53:00,
2013-05-24 06:55:00,58.1,57.0,29.92,WNW,292,3.8,5.8,96,0.00,FEW,OVC,0.01,WeatherDisplay:10.37,2013-05-24 10:55:00,
2013-05-24 06:57:00,58.1,57.0,29.92,WNW,292,5.3,5.8,96,0.00,FEW,OVC,0.01,WeatherDisplay:10.37,2013-05-24 10:57:00,
2013-05-24 06:58:00,58.3,57.2,29.92,WNW,292,3.9,5.8,96,0.00,FEW,OVC,0.01,WeatherDisplay:10.37,2013-05-24 10:58:00,
2013-05-24 07:00:00,58.3,57.2,29.92,WNW,292,5.0,7.0,96,0.00,FEW,OVC,0.01,WeatherDisplay:10.37,2013-05-24 11:00:00,
2013-05-24 07:01:00,58.1,57.0,29.92,WNW,292,4.8,5.8,96,0.00,FEW,OVC,0.01,WeatherDisplay:10.37,2013-05-24 11:01:00,
2013-05-24 07:03:00,58.3,57.2,29.92,WNW,292,4.3,5.8,96,0.00,BKN,OVC,0.01,WeatherDisplay:10.37,2013-05-24 11:03:00,
2013-05-24 07:04:00,58.3,57.2,29.93,WNW,292,4.5,5.8,96,0.00,BKN,OVC,0.01,WeatherDisplay:10.37,2013-05-24 11:04:00,
2013-05-24 07:06:00,58.3,57.2,29.93,WNW,292,4.4,5.8,96,0.00,BKN,OVC,0.01,WeatherDisplay:10.37,2013-05-24 11:06:00,
2013-05-24 07:07:00,58.4,57.3,29.93,WNW,292,4.5,5.8,96,0.00,BKN,OVC,0.01,WeatherDisplay:10.37,2013-05-24 11:07:00,
2013-05-24 07:10:00,58.4,57.0,29.93,WNW,292,5.0,6.9,95,0.00,BKN,OVC,0.01,WeatherDisplay:10.37,2013-05-24 11:10:00,
2013-05-24 07:11:00,58.4,57.0,29.93,WNW,292,4.9,6.9,95,0.00,BKN,OVC,0.01,WeatherDisplay:10.37,2013-05-24 11:11:00,
2013-05-24 07:12:00,58.4,57.0,29.93,WNW,292,4.8,5.8,95,0.00,BKN,OVC,0.01,WeatherDisplay:10.37,2013-05-24 11:12:00,
2013-05-24 07:13:00,58.4,57.0,29.93,WNW,292,4.9,6.0,95,0.00,BKN,OVC,0.01,WeatherDisplay:10.37,2013-05-24 11:13:00,
2013-05-24 07:15:00,58.6,57.2,29.93,WNW,292,3.0,7.0,95,0.00,BKN,OVC,0.01,WeatherDisplay:10.37,2013-05-24 11:15:00,
2013-05-24 07:17:00,58.6,57.2,29.93,WNW,292,3.8,4.6,95,0.00,BKN,OVC,0.01,WeatherDisplay:10.37,2013-05-24 11:17:00,
2013-05-24 07:18:00,58.6,57.2,29.93,WNW,292,3.1,4.0,95,0.00,BKN,OVC,0.01,WeatherDisplay:10.37,2013-05-24 11:18:00,
2013-05-24 07:19:00,58.6,57.2,29.94,WNW,292,3.8,4.0,95,0.00,BKN,OVC,0.01,WeatherDisplay:10.37,2013-05-24 11:19:00,
2013-05-24 07:20:00,58.7,57.3,29.94,WNW,292,4.4,4.6,95,0.00,BKN,OVC,0.01,WeatherDisplay:10.37,2013-05-24 11:20:00,
2013-05-24 07:22:00,58.7,57.3,29.94,WNW,292,3.6,4.6,95,0.00,BKN,OVC,0.01,WeatherDisplay:10.37,2013-05-24 11:22:00,
2013-05-24 07:23:00,58.7,57.3,29.94,WNW,292,2.9,4.6,95,0.00,BKN,OVC,0.01,WeatherDisplay:10.37,2013-05-24 11:23:00,
2013-05-24 07:24:00,58.7,57.3,29.94,WNW,292,2.9,4.6,95,0.00,BKN,OVC,0.01,WeatherDisplay:10.37,2013-05-24 11:24:00,
2013-05-24 07:25:00,58.9,57.2,29.94,WNW,292,1.5,3.5,94,0.00,BKN,OVC,0.01,WeatherDisplay:10.37,2013-05-24 11:25:00,
2013-05-24 07:26:00,58.9,57.5,29.94,WNW,292,0.0,1.1,95,0.00,BKN,OVC,0.01,WeatherDisplay:10.37,2013-05-24 11:26:00,
2013-05-24 07:27:00,58.9,57.5,29.94,WNW,292,0.0,0.0,95,0.00,BKN,OVC,0.01,WeatherDisplay:10.37,2013-05-24 11:27:00,
2013-05-24 07:28:00,59.0,57.3,29.94,WNW,292,0.8,2.3,94,0.00,BKN,OVC,0.01,WeatherDisplay:10.37,2013-05-24 11:28:00,
2013-05-24 07:30:00,59.0,57.3,29.94,WNW,292,2.2,3.5,94,0.00,BKN,OVC,0.01,WeatherDisplay:10.37,2013-05-24 11:30:00,
2013-05-24 07:31:00,59.2,57.5,29.94,WNW,292,2.5,3.5,94,0.00,BKN,OVC,0.01,WeatherDisplay:10.37,2013-05-24 11:31:00,
2013-05-24 07:33:00,59.3,57.6,29.94,WNW,292,2.6,3.5,94,0.00,BKN,OVC,0.01,WeatherDisplay:10.37,2013-05-24 11:33:00,
2013-05-24 07:36:00,59.5,57.8,29.94,WNW,292,2.1,3.5,94,0.00,BKN,OVC,0.01,WeatherDisplay:10.37,2013-05-24 11:36:00,
2013-05-24 07:37:00,59.5,57.8,29.94,WNW,292,2.2,3.5,94,0.00,BKN,OVC,0.01,WeatherDisplay:10.37,2013-05-24 11:37:00,
2013-05-24 07:38:00,59.5,57.8,29.94,WNW,292,1.5,3.5,94,0.00,BKN,OVC,0.01,WeatherDisplay:10.37,2013-05-24 11:38:00,
2013-05-24 07:40:00,59.6,57.9,29.94,WNW,292,0.1,3.5,94,0.00,BKN,OVC,0.01,WeatherDisplay:10.37,2013-05-24 11:40:00,
2013-05-24 07:43:00,59.8,57.8,29.94,WNW,292,2.7,3.5,93,0.00,BKN,OVC,0.01,WeatherDisplay:10.37,2013-05-24 11:43:00,
2013-05-24 07:44:00,59.8,57.8,29.94,WNW,292,0.8,3.5,93,0.00,BKN,OVC,0.01,WeatherDisplay:10.37,2013-05-24 11:44:00,
2013-05-24 07:45:00,59.9,57.9,29.94,WNW,292,0.0,0.0,93,0.00,BKN,OVC,0.01,WeatherDisplay:10.37,2013-05-24 11:45:00,
2013-05-24 07:48:00,60.1,58.1,29.94,WNW,292,3.0,5.8,93,0.00,BKN,OVC,0.01,WeatherDisplay:10.37,2013-05-24 11:48:00,
2013-05-24 07:49:00,60.1,58.1,29.94,WNW,292,2.7,4.0,93,0.00,BKN,OVC,0.01,WeatherDisplay:10.37,2013-05-24 11:49:00,
2013-05-24 07:51:00,60.2,57.9,29.94,WNW,292,1.3,4.0,92,0.00,BKN,OVC,0.01,WeatherDisplay:10.37,2013-05-24 11:51:00,
2013-05-24 07:53:00,60.4,58.1,29.94,WNW,292,0.0,0.0,92,0.00,BKN,OVC,0.01,WeatherDisplay:10.37,2013-05-24 11:53:00,
2013-05-24 07:54:00,60.4,58.1,29.94,WNW,292,2.4,4.0,92,0.00,BKN,OVC,0.01,WeatherDisplay:10.37,2013-05-24 11:54:00,
2013-05-24 07:55:00,60.4,57.8,29.95,WNW,292,2.6,4.6,91,0.00,BKN,OVC,0.01,WeatherDisplay:10.37,2013-05-24 11:55:00,
2013-05-24 07:57:00,60.5,57.9,29.95,WNW,292,0.3,3.0,91,0.00,BKN,OVC,0.01,WeatherDisplay:10.37,2013-05-24 11:57:00,
2013-05-24 07:59:00,60.9,58.3,29.95,WNW,292,2.7,4.6,91,0.00,BKN,OVC,0.01,WeatherDisplay:10.37,2013-05-24 11:59:00,
2013-05-24 08:00:00,60.9,57.9,29.95,WNW,292,1.0,6.0,90,0.00,BKN,OVC,0.01,WeatherDisplay:10.37,2013-05-24 12:00:00,
2013-05-24 08:02:00,61.0,58.0,29.95,WNW,292,2.8,5.8,90,0.00,FEW,OVC,0.01,WeatherDisplay:10.37,2013-05-24 12:02:00,
2013-05-24 08:05:00,61.3,57.7,29.95,WNW,292,4.8,6.9,88,0.00,FEW,OVC,0.01,WeatherDisplay:10.37,2013-05-24 12:05:00,
2013-05-24 08:06:00,61.3,57.7,29.95,WNW,292,5.6,6.9,88,0.00,FEW,OVC,0.01,WeatherDisplay:10.37,2013-05-24 12:06:00,
2013-05-24 08:07:00,61.5,57.6,29.95,WNW,292,5.5,5.8,87,0.00,FEW,OVC,0.01,WeatherDisplay:10.37,2013-05-24 12:07:00,
2013-05-24 08:09:00,61.6,57.7,29.95,WNW,292,3.3,3.5,87,0.00,FEW,OVC,0.01,WeatherDisplay:10.37,2013-05-24 12:09:00,
2013-05-24 08:10:00,61.6,57.7,29.95,WNW,292,3.0,5.8,87,0.00,FEW,OVC,0.01,WeatherDisplay:10.37,2013-05-24 12:10:00,
2013-05-24 08:11:00,61.8,57.9,29.95,WNW,292,0.9,6.0,87,0.00,FEW,OVC,0.01,WeatherDisplay:10.37,2013-05-24 12:11:00,
2013-05-24 08:12:00,61.8,57.6,29.95,WNW,292,5.3,5.8,86,0.00,FEW,OVC,0.01,WeatherDisplay:10.37,2013-05-24 12:12:00,
2013-05-24 08:17:00,62.0,57.8,29.95,WNW,292,3.9,6.9,86,0.00,FEW,OVC,0.01,WeatherDisplay:10.37,2013-05-24 12:17:00,
2013-05-24 08:19:00,62.1,57.9,29.96,WNW,292,0.3,3.5,86,0.00,FEW,OVC,0.01,WeatherDisplay:10.37,2013-05-24 12:19:00,
2013-05-24 08:20:00,62.3,58.1,29.96,WNW,292,1.4,3.5,86,0.00,FEW,OVC,0.01,WeatherDisplay:10.37,2013-05-24 12:20:00,
2013-05-24 08:23:00,62.4,58.2,29.96,WNW,292,1.9,3.5,86,0.00,FEW,OVC,0.01,WeatherDisplay:10.37,2013-05-24 12:23:00,
2013-05-24 08:24:00,62.4,57.8,29.96,WNW,292,1.9,4.6,85,0.00,FEW,OVC,0.01,WeatherDisplay:10.37,2013-05-24 12:24:00,
2013-05-24 08:25:00,62.6,58.0,29.96,WNW,292,0.0,4.6,85,0.00,FEW,OVC,0.01,WeatherDisplay:10.37,2013-05-24 12:25:00,
2013-05-24 08:27:00,62.7,58.5,29.96,WNW,292,0.2,0.0,86,0.00,FEW,OVC,0.01,WeatherDisplay:10.37,2013-05-24 12:27:00,
2013-05-24 08:28:00,62.9,58.6,29.96,WNW,290,6.8,9.0,86,0.00,FEW,OVC,0.01,WeatherDisplay:10.37,2013-05-24 12:28:00,
2013-05-24 08:29:00,62.9,58.6,29.96,WNW,293,8.4,10.4,86,0.00,FEW,OVC,0.01,WeatherDisplay:10.37,2013-05-24 12:29:00,
2013-05-24 08:30:00,62.9,58.0,29.96,WNW,293,6.0,10.0,84,0.00,FEW,OVC,0.01,WeatherDisplay:10.37,2013-05-24 12:30:00,
2013-05-24 08:32:00,63.1,58.2,29.96,WNW,302,5.0,10.4,84,0.00,FEW,OVC,0.01,WeatherDisplay:10.37,2013-05-24 12:32:00,
2013-05-24 08:34:00,63.2,57.9,29.96,WNW,302,2.9,5.8,83,0.00,FEW,OVC,0.01,WeatherDisplay:10.37,2013-05-24 12:34:00,
2013-05-24 08:36:00,63.2,57.6,29.96,NW,306,6.7,9.2,82,0.00,FEW,OVC,0.01,WeatherDisplay:10.37,2013-05-24 12:36:00,
2013-05-24 08:37:00,63.2,57.6,29.96,NW,308,7.9,12.0,82,0.00,FEW,OVC,0.01,WeatherDisplay:10.37,2013-05-24 12:37:00,
2013-05-24 08:38:00,63.2,57.6,29.96,NW,313,9.6,12.0,82,0.00,FEW,OVC,0.01,WeatherDisplay:10.37,2013-05-24 12:38:00,
2013-05-24 08:39:00,63.2,57.3,29.96,NW,313,7.7,11.5,81,0.00,FEW,OVC,0.01,WeatherDisplay:10.37,2013-05-24 12:39:00,
2013-05-24 08:42:00,63.4,57.5,29.96,NW,313,9.0,11.5,81,0.00,FEW,OVC,0.01,WeatherDisplay:10.37,2013-05-24 12:42:00,
2013-05-24 08:43:00,63.4,57.5,29.96,NW,313,6.1,11.5,81,0.00,FEW,OVC,0.01,WeatherDisplay:10.37,2013-05-24 12:43:00,
2013-05-24 08:44:00,63.5,57.6,29.96,NW,306,6.2,9.2,81,0.00,FEW,OVC,0.01,WeatherDisplay:10.37,2013-05-24 12:44:00,
2013-05-24 08:45:00,63.5,57.9,29.96,NW,307,7.4,9.2,82,0.00,FEW,OVC,0.01,WeatherDisplay:10.37,2013-05-24 12:45:00,
2013-05-24 08:48:00,63.9,58.3,29.96,NW,304,6.5,9.2,82,0.00,FEW,OVC,0.01,WeatherDisplay:10.37,2013-05-24 12:48:00,
2013-05-24 08:49:00,63.9,58.3,29.96,NW,304,7.2,9.2,82,0.00,FEW,OVC,0.01,WeatherDisplay:10.37,2013-05-24 12:49:00,
2013-05-24 08:50:00,63.9,58.0,29.96,NW,309,10.2,15.0,81,0.00,FEW,OVC,0.01,WeatherDisplay:10.37,2013-05-24 12:50:00,
2013-05-24 08:53:00,64.0,57.7,29.97,NW,309,4.7,5.8,80,0.00,FEW,OVC,0.01,WeatherDisplay:10.37,2013-05-24 12:53:00,
2013-05-24 08:54:00,64.2,58.2,29.97,WNW,298,7.9,11.5,81,0.00,FEW,OVC,0.01,WeatherDisplay:10.37,2013-05-24 12:54:00,
2013-05-24 08:55:00,64.2,58.2,29.97,WNW,298,8.5,11.5,81,0.00,FEW,OVC,0.01,WeatherDisplay:10.37,2013-05-24 12:55:00,
2013-05-24 08:57:00,64.2,57.9,29.97,NW,309,5.0,6.9,80,0.00,FEW,OVC,0.01,WeatherDisplay:10.37,2013-05-24 12:57:00,
2013-05-24 08:58:00,64.2,57.5,29.97,NW,316,6.5,10.0,79,0.00,FEW,OVC,0.01,WeatherDisplay:10.37,2013-05-24 12:58:00,
2013-05-24 08:59:00,64.2,57.9,29.97,WNW,298,8.8,12.7,80,0.00,FEW,OVC,0.01,WeatherDisplay:10.37,2013-05-24 12:59:00,
2013-05-24 09:00:00,64.2,57.5,29.97,WNW,303,6.8,12.7,79,0.00,FEW,OVC,0.01,WeatherDisplay:10.37,2013-05-24 13:00:00,
2013-05-24 09:01:00,64.2,57.5,29.97,NW,311,6.5,10.4,79,0.00,FEW,OVC,0.01,WeatherDisplay:10.37,2013-05-24 13:01:00,
2013-05-24 09:04:00,64.3,56.6,29.97,NNW,327,14.6,23.0,76,0.00,FEW,OVC,0.01,WeatherDisplay:10.37,2013-05-24 13:04:00,
2013-05-24 09:05:00,64.3,56.9,29.97,NNW,330,12.9,18.4,77,0.00,FEW,OVC,0.01,WeatherDisplay:10.37,2013-05-24 13:05:00,
2013-05-24 09:06:00,64.5,57.5,29.97,NW,315,9.2,18.4,78,0.00,FEW,OVC,0.01,WeatherDisplay:10.37,2013-05-24 13:06:00,
2013-05-24 09:07:00,64.5,56.8,29.98,NNW,330,11.0,12.7,76,0.00,FEW,OVC,0.01,WeatherDisplay:10.37,2013-05-24 13:07:00,
2013-05-24 09:08:00,64.5,57.1,29.98,WNW,302,11.0,15.0,77,0.00,FEW,OVC,0.01,WeatherDisplay:10.37,2013-05-24 13:08:00,
2013-05-24 09:12:00,64.7,57.0,29.98,NW,304,9.8,14.0,76,0.00,FEW,OVC,0.01,WeatherDisplay:10.37,2013-05-24 13:12:00,
2013-05-24 09:13:00,64.7,56.6,29.98,NW,309,12.5,17.0,75,0.00,FEW,OVC,0.01,WeatherDisplay:10.37,2013-05-24 13:13:00,
2013-05-24 09:14:00,64.7,56.2,29.98,NNW,338,14.9,18.4,74,0.00,FEW,OVC,0.01,WeatherDisplay:10.37,2013-05-24 13:14:00,
2013-05-24 09:15:00,64.7,56.2,29.98,NW,317,10.0,23.0,74,0.00,FEW,OVC,0.01,WeatherDisplay:10.37,2013-05-24 13:15:00,
2013-05-24 09:18:00,64.7,55.5,29.98,NNW,327,11.5,15.0,72,0.00,FEW,OVC,0.01,WeatherDisplay:10.37,2013-05-24 13:18:00,
2013-05-24 09:19:00,64.7,55.8,29.99,NW,307,11.5,13.8,73,0.00,FEW,OVC,0.01,WeatherDisplay:10.37,2013-05-24 13:19:00,
2013-05-24 09:22:00,64.8,55.2,29.99,NW,320,10.2,11.5,71,0.00,FEW,OVC,0.01,WeatherDisplay:10.37,2013-05-24 13:22:00,
2013-05-24 09:23:00,64.8,55.2,29.99,NW,315,10.3,13.8,71,0.00,FEW,OVC,0.01,WeatherDisplay:10.37,2013-05-24 13:23:00,
2013-05-24 09:24:00,64.8,55.9,29.99,NW,323,11.0,18.4,73,0.00,FEW,OVC,0.01,WeatherDisplay:10.37,2013-05-24 13:24:00,
2013-05-24 09:26:00,65.0,56.5,29.99,NW,305,14.0,14.0,74,0.00,FEW,OVC,0.01,WeatherDisplay:10.37,2013-05-24 13:26:00,
2013-05-24 09:28:00,64.8,55.2,29.99,NW,304,14.3,17.3,71,0.00,FEW,OVC,0.01,WeatherDisplay:10.37,2013-05-24 13:28:00,
2013-05-24 09:30:00,64.8,55.9,29.99,NW,309,9.5,15.0,73,0.00,FEW,OVC,0.01,WeatherDisplay:10.37,2013-05-24 13:30:00,
2013-05-24 09:32:00,64.8,55.9,29.99,NW,319,8.2,10.4,73,0.00,FEW,OVC,0.01,WeatherDisplay:10.37,2013-05-24 13:32:00,
2013-05-24 09:35:00,65.0,55.8,30.00,NW,309,11.0,12.7,72,0.00,FEW,OVC,0.01,WeatherDisplay:10.37,2013-05-24 13:35:00,
2013-05-24 09:36:00,65.0,55.8,30.00,WNW,298,12.2,17.3,72,0.00,FEW,OVC,0.01,WeatherDisplay:10.37,2013-05-24 13:36:00,
2013-05-24 09:37:00,65.0,55.8,30.00,WNW,303,13.7,20.7,72,0.00,FEW,OVC,0.01,WeatherDisplay:10.37,2013-05-24 13:37:00,
2013-05-24 09:40:00,65.0,55.8,30.00,WNW,294,12.5,15.0,72,0.00,FEW,OVC,0.01,WeatherDisplay:10.37,2013-05-24 13:40:00,
2013-05-24 09:41:00,65.0,55.8,30.00,NNW,332,12.3,16.1,72,0.00,FEW,OVC,0.01,WeatherDisplay:10.37,2013-05-24 13:41:00,
2013-05-24 09:42:00,65.0,55.8,30.00,NW,311,11.8,13.8,72,0.00,FEW,OVC,0.01,WeatherDisplay:10.37,2013-05-24 13:42:00,
2013-05-24 09:45:00,65.0,55.0,30.00,WNW,300,13.1,19.6,70,0.00,FEW,OVC,0.01,WeatherDisplay:10.37,2013-05-24 13:45:00,
2013-05-24 09:47:00,64.7,54.3,29.99,NW,316,14.5,18.4,69,0.00,FEW,OVC,0.01,WeatherDisplay:10.37,2013-05-24 13:47:00,
2013-05-24 09:50:00,64.5,52.9,30.00,NW,306,13.7,16.1,66,0.00,FEW,OVC,0.01,WeatherDisplay:10.37,2013-05-24 13:50:00,
2013-05-24 09:51:00,64.5,52.9,30.01,NW,322,13.7,16.1,66,0.00,FEW,OVC,0.01,WeatherDisplay:10.37,2013-05-24 13:51:00,
2013-05-24 09:53:00,64.5,52.0,30.01,NW,318,14.0,17.3,64,0.00,FEW,OVC,0.01,WeatherDisplay:10.37,2013-05-24 13:53:00,
2013-05-24 09:55:00,64.5,52.0,30.01,WNW,300,8.0,12.7,64,0.00,FEW,OVC,0.01,WeatherDisplay:10.37,2013-05-24 13:55:00,
2013-05-24 09:57:00,64.5,52.5,30.01,NW,318,9.4,15.0,65,0.00,FEW,OVC,0.01,WeatherDisplay:10.37,2013-05-24 13:57:00,
2013-05-24 09:58:00,64.5,52.5,30.01,NNW,329,12.9,17.3,65,0.00,FEW,OVC,0.01,WeatherDisplay:10.37,2013-05-24 13:58:00,
2013-05-24 09:59:00,64.7,53.1,30.01,NW,308,11.3,13.8,66,0.00,FEW,OVC,0.01,WeatherDisplay:10.37,2013-05-24 13:59:00,
2013-05-24 10:00:00,64.7,52.7,30.01,NW,318,13.0,18.0,65,0.00,FEW,OVC,0.01,WeatherDisplay:10.37,2013-05-24 14:00:00,
2013-05-24 10:02:00,64.8,53.6,30.01,NW,319,11.6,17.3,67,0.00,SCT,OVC,0.01,WeatherDisplay:10.37,2013-05-24 14:02:00,
2013-05-24 10:04:00,65.0,53.4,30.01,NNW,331,11.0,16.0,66,0.00,SCT,OVC,0.01,WeatherDisplay:10.37,2013-05-24 14:04:00,
2013-05-24 10:05:00,65.0,52.1,30.02,NNW,331,14.3,16.1,63,0.00,SCT,OVC,0.01,WeatherDisplay:10.37,2013-05-24 14:05:00,
2013-05-24 10:08:00,64.8,51.9,30.02,NNW,327,14.1,21.0,63,0.00,SCT,OVC,0.01,WeatherDisplay:10.37,2013-05-24 14:08:00,
2013-05-24 10:09:00,64.8,51.5,30.02,North,10,16.0,20.7,62,0.00,SCT,OVC,0.01,WeatherDisplay:10.37,2013-05-24 14:09:00,
2013-05-24 10:11:00,64.8,51.5,30.02,NW,309,16.3,24.2,62,0.00,SCT,OVC,0.01,WeatherDisplay:10.37,2013-05-24 14:11:00,
2013-05-24 10:14:00,65.0,51.2,30.02,NW,323,16.5,19.6,61,0.00,SCT,OVC,0.01,WeatherDisplay:10.37,2013-05-24 14:14:00,
2013-05-24 10:17:00,65.2,51.8,30.02,NW,322,14.4,17.3,62,0.00,SCT,OVC,0.01,WeatherDisplay:10.37,2013-05-24 14:17:00,
2013-05-24 10:18:00,65.2,52.3,30.02,WNW,298,13.2,20.0,63,0.00,SCT,OVC,0.01,WeatherDisplay:10.37,2013-05-24 14:18:00,
2013-05-24 10:19:00,65.3,51.5,30.02,NW,304,8.8,19.6,61,0.00,SCT,OVC,0.01,WeatherDisplay:10.37,2013-05-24 14:19:00,
2013-05-24 10:20:00,65.3,51.5,30.02,NW,322,8.7,12.7,61,0.00,SCT,OVC,0.01,WeatherDisplay:10.37,2013-05-24 14:20:00,
2013-05-24 10:22:00,65.6,53.1,30.03,NNW,336,7.7,12.7,64,0.00,SCT,OVC,0.01,WeatherDisplay:10.37,2013-05-24 14:22:00,
2013-05-24 10:23:00,65.6,52.2,30.03,NW,311,8.7,11.5,62,0.00,SCT,OVC,0.01,WeatherDisplay:10.37,2013-05-24 14:23:00,
2013-05-24 10:25:00,65.5,51.2,30.03,NNW,337,14.1,18.4,60,0.00,SCT,OVC,0.01,WeatherDisplay:10.37,2013-05-24 14:25:00,
2013-05-24 10:26:00,65.5,51.7,30.03,NNW,331,9.7,16.1,61,0.00,SCT,OVC,0.01,WeatherDisplay:10.37,2013-05-24 14:26:00,
2013-05-24 10:30:00,65.5,50.8,30.03,NW,304,18.0,21.0,59,0.00,SCT,OVC,0.01,WeatherDisplay:10.37,2013-05-24 14:30:00,
2013-05-24 10:31:00,65.5,51.2,30.03,NW,309,15.4,20.7,60,0.00,SCT,OVC,0.01,WeatherDisplay:10.37,2013-05-24 14:31:00,
2013-05-24 10:32:00,65.5,51.2,30.03,NNW,334,14.8,21.0,60,0.00,SCT,OVC,0.01,WeatherDisplay:10.37,2013-05-24 14:32:00,
2013-05-24 10:36:00,65.2,50.5,30.03,WNW,294,16.4,18.4,59,0.00,SCT,OVC,0.01,WeatherDisplay:10.37,2013-05-24 14:36:00,
2013-05-24 10:38:00,65.0,50.3,30.03,NW,313,11.4,21.9,59,0.00,SCT,OVC,0.01,WeatherDisplay:10.37,2013-05-24 14:38:00,
2013-05-24 10:39:00,65.0,51.2,30.03,NW,306,12.3,13.8,61,0.00,SCT,OVC,0.01,WeatherDisplay:10.37,2013-05-24 14:39:00,
2013-05-24 10:40:00,65.2,51.8,30.03,NW,319,8.9,15.0,62,0.00,SCT,OVC,0.01,WeatherDisplay:10.37,2013-05-24 14:40:00,
2013-05-24 10:42:00,65.2,50.5,30.03,NW,318,14.3,17.3,59,0.00,SCT,OVC,0.01,WeatherDisplay:10.37,2013-05-24 14:42:00,
2013-05-24 10:44:00,65.2,50.5,30.03,West,275,19.9,25.3,59,0.00,SCT,OVC,0.01,WeatherDisplay:10.37,2013-05-24 14:44:00,
2013-05-24 10:45:00,65.2,49.6,30.03,NW,318,20.0,25.3,57,0.00,SCT,OVC,0.01,WeatherDisplay:10.37,2013-05-24 14:45:00,
2013-05-24 10:47:00,65.2,51.0,30.03,NW,318,15.1,18.4,60,0.00,SCT,OVC,0.01,WeatherDisplay:10.37,2013-05-24 14:47:00,
2013-05-24 10:50:00,65.2,51.4,30.03,WNW,296,11.7,15.0,61,0.00,SCT,OVC,0.01,WeatherDisplay:10.37,2013-05-24 14:50:00,
2013-05-24 10:52:00,65.3,50.1,30.04,NW,319,13.8,19.6,58,0.00,SCT,OVC,0.01,WeatherDisplay:10.37,2013-05-24 14:52:00,
2013-05-24 10:54:00,65.3,50.1,30.04,NNW,340,9.0,15.0,58,0.00,SCT,OVC,0.01,WeatherDisplay:10.37,2013-05-24 14:54:00,
2013-05-24 10:56:00,65.3,49.7,30.04,WNW,296,19.6,25.3,57,0.00,SCT,OVC,0.01,WeatherDisplay:10.37,2013-05-24 14:56:00,
2013-05-24 10:59:00,64.5,49.8,30.04,NW,306,17.2,24.2,59,0.00,SCT,OVC,0.01,WeatherDisplay:10.37,2013-05-24 14:59:00,
2013-05-24 11:01:00,64.2,49.6,30.04,WNW,302,13.1,19.6,59,0.00,SCT,OVC,0.01,WeatherDisplay:10.37,2013-05-24 15:01:00,
2013-05-24 11:02:00,64.2,50.9,30.04,NW,308,10.5,15.0,62,0.00,SCT,OVC,0.01,WeatherDisplay:10.37,2013-05-24 15:02:00,
2013-05-24 11:05:00,64.0,50.3,30.05,WNW,296,11.1,17.0,61,0.00,SCT,OVC,0.01,WeatherDisplay:10.37,2013-05-24 15:05:00,
2013-05-24 11:07:00,63.7,48.6,30.05,WNW,295,13.5,23.0,58,0.00,SCT,OVC,0.01,WeatherDisplay:10.37,2013-05-24 15:07:00,
2013-05-24 11:08:00,63.7,49.1,30.05,WNW,292,19.3,21.9,59,0.00,SCT,OVC,0.01,WeatherDisplay:10.37,2013-05-24 15:08:00,
2013-05-24 11:10:00,63.5,48.5,30.05,WNW,296,13.2,18.4,58,0.00,SCT,OVC,0.01,WeatherDisplay:10.37,2013-05-24 15:10:00,
2013-05-24 11:12:00,63.7,48.2,30.05,WNW,293,14.7,19.6,57,0.00,SCT,OVC,0.01,WeatherDisplay:10.37,2013-05-24 15:12:00,
2013-05-24 11:14:00,64.0,48.0,30.05,WNW,299,18.4,25.3,56,0.00,SCT,OVC,0.01,WeatherDisplay:10.37,2013-05-24 15:14:00,
2013-05-24 11:15:00,64.0,48.5,30.05,NW,325,13.0,20.0,57,0.00,SCT,OVC,0.01,WeatherDisplay:10.37,2013-05-24 15:15:00,
2013-05-24 11:19:00,63.7,48.6,30.05,NNW,339,17.9,21.0,58,0.00,SCT,OVC,0.01,WeatherDisplay:10.37,2013-05-24 15:19:00,
2013-05-24 11:20:00,63.7,48.2,30.05,NNW,328,16.2,20.0,57,0.00,SCT,OVC,0.01,WeatherDisplay:10.37,2013-05-24 15:20:00,
2013-05-24 11:21:00,63.7,48.2,30.05,North,351,17.2,19.6,57,0.00,SCT,OVC,0.01,WeatherDisplay:10.37,2013-05-24 15:21:00,
2013-05-24 11:23:00,63.9,48.8,30.05,NW,311,13.6,17.3,58,0.00,SCT,OVC,0.01,WeatherDisplay:10.37,2013-05-24 15:23:00,
2013-05-24 11:24:00,64.0,48.0,30.05,NW,311,14.6,20.0,56,0.00,SCT,OVC,0.01,WeatherDisplay:10.37,2013-05-24 15:24:00,
2013-05-24 11:26:00,64.0,46.5,30.06,NNW,340,17.3,24.2,53,0.00,SCT,OVC,0.01,WeatherDisplay:10.37,2013-05-24 15:26:00,
2013-05-24 11:27:00,64.0,46.0,30.06,NNW,337,17.9,26.5,52,0.00,SCT,OVC,0.01,WeatherDisplay:10.37,2013-05-24 15:27:00,
2013-05-24 11:29:00,64.2,46.7,30.06,WNW,303,17.0,20.7,53,0.00,SCT,OVC,0.01,WeatherDisplay:10.37,2013-05-24 15:29:00,
2013-05-24 11:31:00,64.2,47.2,30.06,North,351,13.5,17.3,54,0.00,SCT,OVC,0.01,WeatherDisplay:10.37,2013-05-24 15:31:00,
2013-05-24 11:32:00,64.3,48.3,30.06,NW,323,14.8,17.3,56,0.00,SCT,OVC,0.01,WeatherDisplay:10.37,2013-05-24 15:32:00,
2013-05-24 11:33:00,64.2,46.2,30.06,NNW,337,15.8,19.6,52,0.00,SCT,OVC,0.01,WeatherDisplay:10.37,2013-05-24 15:33:00,
2013-05-24 11:35:00,64.0,46.0,30.07,NW,310,12.0,23.0,52,0.00,SCT,OVC,0.01,WeatherDisplay:10.37,2013-05-24 15:35:00,
2013-05-24 11:37:00,64.2,47.2,30.07,NW,317,18.2,19.6,54,0.00,SCT,OVC,0.01,WeatherDisplay:10.37,2013-05-24 15:37:00,
2013-05-24 11:38:00,64.2,45.7,30.07,NW,314,12.6,21.9,51,0.00,SCT,OVC,0.01,WeatherDisplay:10.37,2013-05-24 15:38:00,
2013-05-24 11:39:00,64.2,47.2,30.07,NNW,333,11.3,17.3,54,0.00,SCT,OVC,0.01,WeatherDisplay:10.37,2013-05-24 15:39:00,
2013-05-24 11:43:00,64.0,45.5,30.07,West,259,15.3,23.0,51,0.00,SCT,OVC,0.01,WeatherDisplay:10.37,2013-05-24 15:43:00,
2013-05-24 11:44:00,64.0,45.5,30.07,WNW,282,15.0,20.7,51,0.00,SCT,OVC,0.01,WeatherDisplay:10.37,2013-05-24 15:44:00,
2013-05-24 11:45:00,64.0,45.5,30.07,WNW,299,17.0,25.0,51,0.00,SCT,OVC,0.01,WeatherDisplay:10.37,2013-05-24 15:45:00,
2013-05-24 11:47:00,64.2,47.2,30.07,WNW,284,15.7,18.4,54,0.00,SCT,OVC,0.01,WeatherDisplay:10.37,2013-05-24 15:47:00,
2013-05-24 11:49:00,64.0,46.5,30.08,NW,317,14.6,20.7,53,0.00,SCT,OVC,0.01,WeatherDisplay:10.37,2013-05-24 15:49:00,
2013-05-24 11:50:00,64.0,47.0,30.08,NW,306,5.2,19.6,54,0.00,SCT,OVC,0.01,WeatherDisplay:10.37,2013-05-24 15:50:00,
2013-05-24 11:52:00,64.3,47.3,30.08,NNE,26,8.1,17.3,54,0.00,SCT,OVC,0.01,WeatherDisplay:10.37,2013-05-24 15:52:00,
2013-05-24 11:54:00,64.5,46.0,30.08,NW,321,14.5,24.2,51,0.00,SCT,OVC,0.01,WeatherDisplay:10.37,2013-05-24 15:54:00,
2013-05-24 11:55:00,64.3,46.3,30.08,NNW,327,13.8,19.6,52,0.00,SCT,OVC,0.01,WeatherDisplay:10.37,2013-05-24 15:55:00,
2013-05-24 11:56:00,64.2,46.2,30.08,NNW,335,12.9,18.4,52,0.00,SCT,OVC,0.01,WeatherDisplay:10.37,2013-05-24 15:56:00,
2013-05-24 11:57:00,64.2,46.2,30.08,WNW,288,11.3,18.4,52,0.00,SCT,OVC,0.01,WeatherDisplay:10.37,2013-05-24 15:57:00,
2013-05-24 11:59:00,64.2,47.7,30.08,WNW,301,15.9,19.6,55,0.00,SCT,OVC,0.01,WeatherDisplay:10.37,2013-05-24 15:59:00,
2013-05-24 12:01:00,64.0,47.0,30.08,NW,304,24.2,27.6,54,0.00,SCT,OVC,0.01,WeatherDisplay:10.37,2013-05-24 16:01:00,
2013-05-24 12:02:00,64.0,47.0,30.08,NNW,338,20.5,27.6,54,0.00,SCT,OVC,0.01,WeatherDisplay:10.37,2013-05-24 16:02:00,
2013-05-24 12:03:00,64.0,46.5,30.08,WNW,289,17.6,25.3,53,0.00,SCT,OVC,0.01,WeatherDisplay:10.37,2013-05-24 16:03:00,
2013-05-24 12:04:00,64.0,46.5,30.08,WNW,302,16.1,22.0,53,0.00,SCT,OVC,0.01,WeatherDisplay:10.37,2013-05-24 16:04:00,
2013-05-24 12:08:00,64.2,46.7,30.08,NW,319,15.9,21.9,53,0.00,SCT,OVC,0.01,WeatherDisplay:10.37,2013-05-24 16:08:00,
2013-05-24 12:09:00,64.0,47.0,30.08,WNW,303,16.5,22.0,54,0.00,SCT,OVC,0.01,WeatherDisplay:10.37,2013-05-24 16:09:00,
2013-05-24 12:10:00,63.9,46.9,30.08,West,277,17.9,21.9,54,0.00,SCT,OVC,0.01,WeatherDisplay:10.37,2013-05-24 16:10:00,
2013-05-24 12:11:00,63.9,46.9,30.08,WNW,300,17.0,21.9,54,0.00,SCT,OVC,0.01,WeatherDisplay:10.37,2013-05-24 16:11:00,
2013-05-24 12:13:00,64.0,48.0,30.08,WNW,286,14.1,20.7,56,0.00,SCT,OVC,0.01,WeatherDisplay:10.37,2013-05-24 16:13:00,
2013-05-24 12:15:00,64.0,46.5,30.08,NW,305,15.0,28.0,53,0.00,SCT,OVC,0.01,WeatherDisplay:10.37,2013-05-24 16:15:00,
2013-05-24 12:16:00,63.9,47.4,30.08,NW,307,15.4,20.7,55,0.00,SCT,OVC,0.01,WeatherDisplay:10.37,2013-05-24 16:16:00,
2013-05-24 12:17:00,63.9,45.9,30.08,NW,315,16.7,20.0,52,0.00,SCT,OVC,0.01,WeatherDisplay:10.37,2013-05-24 16:17:00,
2013-05-24 12:20:00,63.9,46.4,30.08,North,349,16.9,20.7,53,0.00,SCT,OVC,0.01,WeatherDisplay:10.37,2013-05-24 16:20:00,
2013-05-24 12:21:00,63.7,45.7,30.08,West,281,16.8,19.6,52,0.00,SCT,OVC,0.01,WeatherDisplay:10.37,2013-05-24 16:21:00,
2013-05-24 12:22:00,63.7,47.2,30.08,WNW,297,16.0,25.3,55,0.00,SCT,OVC,0.01,WeatherDisplay:10.37,2013-05-24 16:22:00,
2013-05-24 12:24:00,64.0,47.0,30.08,NW,312,14.7,22.0,54,0.00,SCT,OVC,0.01,WeatherDisplay:10.37,2013-05-24 16:24:00,
2013-05-24 12:27:00,63.7,44.7,30.08,WNW,296,18.9,24.2,50,0.00,SCT,OVC,0.01,WeatherDisplay:10.37,2013-05-24 16:27:00,
2013-05-24 12:28:00,63.5,44.5,30.08,NW,311,19.9,23.0,50,0.00,SCT,OVC,0.01,WeatherDisplay:10.37,2013-05-24 16:28:00,
2013-05-24 12:29:00,63.4,46.5,30.08,NW,314,16.6,26.5,54,0.00,SCT,OVC,0.01,WeatherDisplay:10.37,2013-05-24 16:29:00,
2013-05-24 12:30:00,63.4,45.5,30.08,NW,325,18.6,21.9,52,0.00,SCT,OVC,0.01,WeatherDisplay:10.37,2013-05-24 16:30:00,
2013-05-24 12:31:00,63.4,45.5,30.08,WNW,299,18.0,27.0,52,0.00,SCT,OVC,0.01,WeatherDisplay:10.37,2013-05-24 16:31:00,
2013-05-24 12:33:00,63.1,45.7,30.08,NW,304,17.5,27.6,53,0.00,SCT,OVC,0.01,WeatherDisplay:10.37,2013-05-24 16:33:00,
2013-05-24 12:35:00,62.9,45.5,30.09,WNW,302,16.4,19.6,53,0.00,SCT,OVC,0.01,WeatherDisplay:10.37,2013-05-24 16:35:00,
2013-05-24 12:36:00,62.9,45.0,30.09,NNW,331,18.9,24.2,52,0.00,SCT,OVC,0.01,WeatherDisplay:10.37,2013-05-24 16:36:00,
2013-05-24 12:38:00,62.9,44.5,30.09,WNW,294,16.3,21.9,51,0.00,SCT,OVC,0.01,WeatherDisplay:10.37,2013-05-24 16:38:00,
2013-05-24 12:39:00,62.9,45.5,30.09,NW,304,12.2,19.6,53,0.00,SCT,OVC,0.01,WeatherDisplay:10.37,2013-05-24 16:39:00,
2013-05-24 12:40:00,62.9,46.0,30.09,West,277,14.9,18.0,54,0.00,SCT,OVC,0.01,WeatherDisplay:10.37,2013-05-24 16:40:00,
2013-05-24 12:44:00,63.1,44.2,30.09,NW,309,13.4,19.6,50,0.00,SCT,OVC,0.01,WeatherDisplay:10.37,2013-05-24 16:44:00,
2013-05-24 12:45:00,63.1,44.2,30.09,NW,325,13.2,19.6,50,0.00,SCT,OVC,0.01,WeatherDisplay:10.37,2013-05-24 16:45:00,
2013-05-24 12:48:00,63.4,43.9,30.09,NW,317,17.1,20.7,49,0.00,SCT,OVC,0.01,WeatherDisplay:10.37,2013-05-24 16:48:00,
2013-05-24 12:50:00,63.5,44.5,30.09,NW,309,16.0,19.6,50,0.00,SCT,OVC,0.01,WeatherDisplay:10.37,2013-05-24 16:50:00,
2013-05-24 12:51:00,63.5,42.9,30.10,North,351,16.7,21.9,47,0.00,SCT,OVC,0.01,WeatherDisplay:10.37,2013-05-24 16:51:00,
2013-05-24 12:53:00,63.4,43.9,30.09,NW,309,11.2,13.8,49,0.00,SCT,OVC,0.01,WeatherDisplay:10.37,2013-05-24 16:53:00,
2013-05-24 12:55:00,63.5,43.4,30.09,North,351,16.2,23.0,48,0.00,SCT,OVC,0.01,WeatherDisplay:10.37,2013-05-24 16:55:00,
2013-05-24 12:56:00,63.4,43.4,30.09,NNW,333,16.2,20.7,48,0.00,SCT,OVC,0.01,WeatherDisplay:10.37,2013-05-24 16:56:00,
2013-05-24 12:58:00,63.2,42.6,30.09,NW,319,16.8,21.9,47,0.00,SCT,OVC,0.01,WeatherDisplay:10.37,2013-05-24 16:58:00,
2013-05-24 13:00:00,63.1,43.6,30.09,WNW,298,9.7,16.1,49,0.00,SCT,OVC,0.01,WeatherDisplay:10.37,2013-05-24 17:00:00,
2013-05-24 13:02:00,63.2,43.2,30.09,NNW,330,19.3,21.9,48,0.00,SCT,OVC,0.01,WeatherDisplay:10.37,2013-05-24 17:02:00,
2013-05-24 13:04:00,63.1,42.5,30.09,NNW,331,19.3,23.0,47,0.00,SCT,OVC,0.01,WeatherDisplay:10.37,2013-05-24 17:04:00,
2013-05-24 13:05:00,63.1,44.2,30.09,NW,311,14.9,21.0,50,0.00,SCT,OVC,0.01,WeatherDisplay:10.37,2013-05-24 17:05:00,
2013-05-24 13:07:00,63.1,43.1,30.09,NW,318,17.6,19.6,48,0.00,SCT,OVC,0.01,WeatherDisplay:10.37,2013-05-24 17:07:00,
2013-05-24 13:09:00,63.2,44.2,30.09,NNW,347,8.9,15.0,50,0.00,SCT,OVC,0.01,WeatherDisplay:10.37,2013-05-24 17:09:00,
2013-05-24 13:11:00,63.4,44.4,30.09,WNW,301,12.4,20.0,50,0.00,SCT,OVC,0.01,WeatherDisplay:10.37,2013-05-24 17:11:00,
2013-05-24 13:12:00,63.4,43.4,30.09,NW,313,19.3,23.0,48,0.00,SCT,OVC,0.01,WeatherDisplay:10.37,2013-05-24 17:12:00,
2013-05-24 13:16:00,63.7,43.1,30.09,WNW,302,18.8,24.2,47,0.00,SCT,OVC,0.01,WeatherDisplay:10.37,2013-05-24 17:16:00,
2013-05-24 13:18:00,63.9,44.4,30.09,NNW,338,17.1,19.6,49,0.00,SCT,OVC,0.01,WeatherDisplay:10.37,2013-05-24 17:18:00,
2013-05-24 13:19:00,63.9,42.7,30.09,NNW,329,16.7,20.0,46,0.00,SCT,OVC,0.01,WeatherDisplay:10.37,2013-05-24 17:19:00,
2013-05-24 13:21:00,63.7,43.1,30.09,North,351,13.6,17.3,47,0.00,SCT,OVC,0.01,WeatherDisplay:10.37,2013-05-24 17:21:00,
2013-05-24 13:23:00,64.0,45.5,30.09,NNW,341,15.5,19.6,51,0.00,SCT,OVC,0.01,WeatherDisplay:10.37,2013-05-24 17:23:00,
2013-05-24 13:24:00,64.2,43.5,30.09,NW,323,13.1,19.6,47,0.00,SCT,OVC,0.01,WeatherDisplay:10.37,2013-05-24 17:24:00,
2013-05-24 13:25:00,64.3,43.1,30.09,North,351,13.9,19.6,46,0.00,SCT,OVC,0.01,WeatherDisplay:10.37,2013-05-24 17:25:00,
2013-05-24 13:28:00,64.2,41.8,30.09,WNW,300,13.1,18.4,44,0.00,SCT,OVC,0.01,WeatherDisplay:10.37,2013-05-24 17:28:00,
2013-05-24 13:29:00,64.2,41.8,30.09,NNW,338,16.2,19.6,44,0.00,SCT,OVC,0.01,WeatherDisplay:10.37,2013-05-24 17:29:00,
2013-05-24 13:30:00,64.3,41.9,30.09,NNW,327,14.6,23.0,44,0.00,SCT,OVC,0.01,WeatherDisplay:10.37,2013-05-24 17:30:00,
2013-05-24 13:31:00,64.3,42.5,30.09,NW,317,15.9,23.0,45,0.00,SCT,OVC,0.01,WeatherDisplay:10.37,2013-05-24 17:31:00,
2013-05-24 13:35:00,64.0,43.9,30.09,NW,323,13.6,19.6,48,0.00,SCT,OVC,0.01,WeatherDisplay:10.37,2013-05-24 17:35:00,
2013-05-24 13:36:00,64.2,42.4,30.09,NW,322,10.6,19.6,45,0.00,SCT,OVC,0.01,WeatherDisplay:10.37,2013-05-24 17:36:00,
2013-05-24 13:37:00,64.2,43.0,30.10,WNW,296,9.2,13.8,46,0.00,SCT,OVC,0.01,WeatherDisplay:10.37,2013-05-24 17:37:00,
2013-05-24 13:40:00,64.3,42.5,30.10,NW,311,14.7,20.7,45,0.00,SCT,OVC,0.01,WeatherDisplay:10.37,2013-05-24 17:40:00,
2013-05-24 13:41:00,64.3,42.5,30.09,WNW,290,15.7,20.7,45,0.00,SCT,OVC,0.01,WeatherDisplay:10.37,2013-05-24 17:41:00,
2013-05-24 13:43:00,64.2,42.4,30.09,WNW,287,16.1,23.0,45,0.00,SCT,OVC,0.01,WeatherDisplay:10.37,2013-05-24 17:43:00,
2013-05-24 13:44:00,64.5,42.7,30.09,NW,304,16.2,19.6,45,0.00,SCT,OVC,0.01,WeatherDisplay:10.37,2013-05-24 17:44:00,
2013-05-24 13:45:00,64.5,43.2,30.09,NW,305,16.0,24.0,46,0.00,SCT,OVC,0.01,WeatherDisplay:10.37,2013-05-24 17:45:00,
2013-05-24 13:46:00,64.7,44.0,30.09,WNW,302,19.8,23.0,47,0.00,SCT,OVC,0.01,WeatherDisplay:10.37,2013-05-24 17:46:00,
2013-05-24 13:47:00,64.5,43.8,30.09,West,281,20.9,30.0,47,0.00,SCT,OVC,0.01,WeatherDisplay:10.37,2013-05-24 17:47:00,
2013-05-24 13:50:00,64.2,41.8,30.10,WNW,299,15.0,19.6,44,0.00,SCT,OVC,0.01,WeatherDisplay:10.37,2013-05-24 17:50:00,
2013-05-24 13:53:00,64.5,43.3,30.10,NW,312,11.7,17.3,46,0.00,SCT,OVC,0.01,WeatherDisplay:10.37,2013-05-24 17:53:00,
2013-05-24 13:54:00,64.5,42.1,30.10,NW,309,14.2,19.6,44,0.00,SCT,OVC,0.01,WeatherDisplay:10.37,2013-05-24 17:54:00,
2013-05-24 13:56:00,64.3,43.1,30.10,NW,307,19.8,24.2,46,0.00,SCT,OVC,0.01,WeatherDisplay:10.37,2013-05-24 17:56:00,
2013-05-24 13:57:00,64.2,40.6,30.10,NNW,342,19.6,23.0,42,0.00,SCT,OVC,0.01,WeatherDisplay:10.37,2013-05-24 17:57:00,
2013-05-24 13:58:00,64.0,40.4,30.10,NW,309,15.0,24.2,42,0.00,SCT,OVC,0.01,WeatherDisplay:10.37,2013-05-24 17:58:00,
2013-05-24 13:59:00,64.0,41.0,30.10,North,351,13.5,21.9,43,0.00,SCT,OVC,0.01,WeatherDisplay:10.37,2013-05-24 17:59:00,
2013-05-24 14:03:00,64.0,41.0,30.10,WNW,291,20.9,30.0,43,0.00,SCT,OVC,0.01,WeatherDisplay:10.37,2013-05-24 18:03:00,
2013-05-24 14:04:00,64.0,41.0,30.10,NW,309,20.0,29.9,43,0.00,SCT,OVC,0.01,WeatherDisplay:10.37,2013-05-24 18:04:00,
2013-05-24 14:05:00,64.2,41.2,30.10,NW,314,16.3,21.9,43,0.00,SCT,OVC,0.01,WeatherDisplay:10.37,2013-05-24 18:05:00,
2013-05-24 14:08:00,64.2,41.2,30.10,NNW,336,14.2,19.6,43,0.00,SCT,OVC,0.01,WeatherDisplay:10.37,2013-05-24 18:08:00,
2013-05-24 14:10:00,64.2,40.0,30.10,NNW,338,15.7,19.6,41,0.00,SCT,OVC,0.01,WeatherDisplay:10.37,2013-05-24 18:10:00,
2013-05-24 14:13:00,64.3,39.4,30.10,NNE,17,14.5,19.6,40,0.00,SCT,OVC,0.01,WeatherDisplay:10.37,2013-05-24 18:13:00,
2013-05-24 14:15:00,64.3,41.3,30.10,NNW,331,14.4,20.7,43,0.00,SCT,OVC,0.01,WeatherDisplay:10.37,2013-05-24 18:15:00,
2013-05-24 14:16:00,64.3,39.4,30.10,NW,319,12.9,16.1,40,0.00,SCT,OVC,0.01,WeatherDisplay:10.37,2013-05-24 18:16:00,
2013-05-24 14:17:00,64.5,41.5,30.10,WNW,288,13.3,18.4,43,0.00,SCT,OVC,0.01,WeatherDisplay:10.37,2013-05-24 18:17:00,
2013-05-24 14:19:00,64.7,39.8,30.10,NW,325,15.2,19.6,40,0.00,SCT,OVC,0.01,WeatherDisplay:10.37,2013-05-24 18:19:00,
2013-05-24 14:20:00,64.5,40.3,30.10,NNW,339,18.1,24.0,41,0.00,SCT,OVC,0.01,WeatherDisplay:10.37,2013-05-24 18:20:00,
2013-05-24 14:22:00,64.3,39.4,30.10,NW,315,17.0,25.3,40,0.00,SCT,OVC,0.01,WeatherDisplay:10.37,2013-05-24 18:22:00,
2013-05-24 14:24:00,64.5,40.9,30.10,NNW,336,6.8,11.5,42,0.00,SCT,OVC,0.01,WeatherDisplay:10.37,2013-05-24 18:24:00,
2013-05-24 14:25:00,64.5,39.6,30.10,NW,315,5.2,11.5,40,0.00,SCT,OVC,0.01,WeatherDisplay:10.37,2013-05-24 18:25:00,
2013-05-24 14:27:00,64.7,39.8,30.10,North,360,16.8,25.3,40,0.00,SCT,OVC,0.01,WeatherDisplay:10.37,2013-05-24 18:27:00,
2013-05-24 14:28:00,64.7,42.3,30.10,NW,313,13.6,19.6,44,0.00,SCT,OVC,0.01,WeatherDisplay:10.37,2013-05-24 18:28:00,
2013-05-24 14:29:00,64.7,42.3,30.10,NNW,348,15.8,19.0,44,0.00,SCT,OVC,0.01,WeatherDisplay:10.37,2013-05-24 18:29:00,
2013-05-24 14:32:00,64.8,39.2,30.10,NNW,335,10.8,11.5,39,0.00,SCT,OVC,0.01,WeatherDisplay:10.37,2013-05-24 18:32:00,
2013-05-24 14:33:00,64.8,41.8,30.10,NNW,327,8.3,15.0,43,0.00,SCT,OVC,0.01,WeatherDisplay:10.37,2013-05-24 18:33:00,
2013-05-24 14:35:00,64.8,41.8,30.10,NW,323,14.2,21.9,43,0.00,SCT,OVC,0.01,WeatherDisplay:10.37,2013-05-24 18:35:00,
2013-05-24 14:36:00,64.8,41.8,30.10,NW,313,12.8,19.6,43,0.00,SCT,OVC,0.01,WeatherDisplay:10.37,2013-05-24 18:36:00,
2013-05-24 14:38:00,64.7,38.5,30.10,NW,310,14.2,20.7,38,0.00,SCT,OVC,0.01,WeatherDisplay:10.37,2013-05-24 18:38:00,
2013-05-24 14:40:00,64.8,39.2,30.10,NNW,333,14.2,23.0,39,0.00,SCT,OVC,0.01,WeatherDisplay:10.37,2013-05-24 18:40:00,
2013-05-24 14:41:00,64.7,39.8,30.10,NW,323,12.8,19.6,40,0.00,SCT,OVC,0.01,WeatherDisplay:10.37,2013-05-24 18:41:00,
2013-05-24 14:43:00,64.5,39.0,30.10,WNW,287,16.6,19.6,39,0.00,SCT,OVC,0.01,WeatherDisplay:10.37,2013-05-24 18:43:00,
2013-05-24 14:45:00,64.5,39.0,30.10,NW,313,16.0,21.9,39,0.00,SCT,OVC,0.01,WeatherDisplay:10.37,2013-05-24 18:45:00,
2013-05-24 14:46:00,64.5,40.3,30.10,NW,309,18.5,28.0,41,0.00,SCT,OVC,0.01,WeatherDisplay:10.37,2013-05-24 18:46:00,
2013-05-24 14:48:00,64.3,38.1,30.10,NNW,337,16.3,20.7,38,0.00,SCT,OVC,0.01,WeatherDisplay:10.37,2013-05-24 18:48:00,
2013-05-24 14:52:00,64.5,40.3,30.11,NW,304,13.7,18.4,41,0.00,SCT,OVC,0.01,WeatherDisplay:10.37,2013-05-24 18:52:00,
2013-05-24 14:53:00,64.8,41.8,30.11,NW,313,15.6,21.0,43,0.00,SCT,OVC,0.01,WeatherDisplay:10.37,2013-05-24 18:53:00,
2013-05-24 14:54:00,64.8,41.8,30.11,WNW,301,16.3,20.7,43,0.00,SCT,OVC,0.01,WeatherDisplay:10.37,2013-05-24 18:54:00,
2013-05-24 14:56:00,64.7,38.5,30.11,NNW,338,18.5,21.9,38,0.00,SCT,OVC,0.01,WeatherDisplay:10.37,2013-05-24 18:56:00,
2013-05-24 14:58:00,64.8,39.2,30.11,NW,322,11.9,18.4,39,0.00,SCT,OVC,0.01,WeatherDisplay:10.37,2013-05-24 18:58:00,
2013-05-24 15:00:00,64.8,38.6,30.11,NW,313,12.7,18.4,38,0.00,SCT,OVC,0.01,WeatherDisplay:10.37,2013-05-24 19:00:00,
2013-05-24 15:01:00,64.8,39.2,30.11,NNW,335,14.3,19.0,39,0.00,SCT,OVC,0.01,WeatherDisplay:10.37,2013-05-24 19:01:00,
2013-05-24 15:04:00,64.8,37.9,30.11,NW,310,14.1,24.2,37,0.00,SCT,OVC,0.01,WeatherDisplay:10.37,2013-05-24 19:04:00,
2013-05-24 15:05:00,64.7,37.1,30.11,North,350,10.9,16.1,36,0.00,SCT,OVC,0.01,WeatherDisplay:10.37,2013-05-24 19:05:00,
2013-05-24 15:06:00,64.8,39.2,30.11,North,360,11.4,17.0,39,0.00,SCT,OVC,0.01,WeatherDisplay:10.37,2013-05-24 19:06:00,
2013-05-24 15:07:00,64.8,37.2,30.11,North,360,14.9,20.7,36,0.00,SCT,OVC,0.01,WeatherDisplay:10.37,2013-05-24 19:07:00,
2013-05-24 15:10:00,65.0,37.4,30.11,NNW,327,12.9,18.4,36,0.00,SCT,OVC,0.01,WeatherDisplay:10.37,2013-05-24 19:10:00,
2013-05-24 15:11:00,65.0,36.7,30.11,NW,304,20.4,21.9,35,0.00,SCT,OVC,0.01,WeatherDisplay:10.37,2013-05-24 19:11:00,
2013-05-24 15:13:00,65.0,36.7,30.11,WNW,297,13.2,18.4,35,0.00,SCT,OVC,0.01,WeatherDisplay:10.37,2013-05-24 19:13:00,
2013-05-24 15:14:00,65.2,38.3,30.11,NW,322,15.6,29.9,37,0.00,SCT,OVC,0.01,WeatherDisplay:10.37,2013-05-24 19:14:00,
2013-05-24 15:15:00,65.0,36.7,30.11,WNW,290,17.6,29.9,35,0.00,SCT,OVC,0.01,WeatherDisplay:10.37,2013-05-24 19:15:00,
2013-05-24 15:17:00,65.2,38.3,30.11,WNW,303,17.8,24.2,37,0.00,SCT,OVC,0.01,WeatherDisplay:10.37,2013-05-24 19:17:00,
2013-05-24 15:18:00,65.2,38.3,30.11,WNW,302,16.3,20.7,37,0.00,SCT,OVC,0.01,WeatherDisplay:10.37,2013-05-24 19:18:00,
2013-05-24 15:19:00,65.2,37.6,30.11,NNW,329,14.1,23.0,36,0.00,SCT,OVC,0.01,WeatherDisplay:10.37,2013-05-24 19:19:00,
2013-05-24 15:24:00,65.6,37.9,30.10,NW,314,14.0,25.3,36,0.00,SCT,OVC,0.01,WeatherDisplay:10.37,2013-05-24 19:24:00,
2013-05-24 15:25:00,65.8,37.4,30.10,NW,311,17.9,23.0,35,0.00,SCT,OVC,0.01,WeatherDisplay:10.37,2013-05-24 19:25:00,
2013-05-24 15:26:00,65.8,38.1,30.10,NW,310,18.6,23.0,36,0.00,SCT,OVC,0.01,WeatherDisplay:10.37,2013-05-24 19:26:00,
2013-05-24 15:29:00,65.3,36.9,30.10,NW,312,19.0,26.5,35,0.00,SCT,OVC,0.01,WeatherDisplay:10.37,2013-05-24 19:29:00,
2013-05-24 15:30:00,65.2,36.9,30.10,NW,308,24.0,30.0,35,0.00,SCT,OVC,0.01,WeatherDisplay:10.37,2013-05-24 19:30:00,
2013-05-24 15:31:00,65.2,36.1,30.10,WNW,294,25.6,29.9,34,0.00,SCT,OVC,0.01,WeatherDisplay:10.37,2013-05-24 19:31:00,
2013-05-24 15:33:00,65.0,37.4,30.10,NW,320,16.5,20.7,36,0.00,SCT,OVC,0.01,WeatherDisplay:10.37,2013-05-24 19:33:00,
2013-05-24 15:34:00,65.0,35.2,30.10,WNW,293,20.3,26.5,33,0.00,SCT,OVC,0.01,WeatherDisplay:10.37,2013-05-24 19:34:00,
2013-05-24 15:35:00,65.0,35.9,30.10,WNW,283,22.3,31.0,34,0.00,SCT,OVC,0.01,WeatherDisplay:10.37,2013-05-24 19:35:00,
2013-05-24 15:38:00,65.0,36.7,30.10,WNW,295,20.0,25.3,35,0.00,SCT,OVC,0.01,WeatherDisplay:10.37,2013-05-24 19:38:00,
2013-05-24 15:39:00,65.0,35.9,30.10,NW,304,21.2,27.6,34,0.00,SCT,OVC,0.01,WeatherDisplay:10.37,2013-05-24 19:39:00,
2013-05-24 15:41:00,65.0,38.1,30.10,NW,310,14.8,20.0,37,0.00,SCT,OVC,0.01,WeatherDisplay:10.37,2013-05-24 19:41:00,
2013-05-24 15:43:00,65.2,38.3,30.10,WNW,292,14.0,20.7,37,0.00,SCT,OVC,0.01,WeatherDisplay:10.37,2013-05-24 19:43:00,
2013-05-24 15:44:00,65.2,40.9,30.10,WNW,294,17.6,19.6,41,0.00,SCT,OVC,0.01,WeatherDisplay:10.37,2013-05-24 19:44:00,
2013-05-24 15:45:00,65.2,40.3,30.10,WNW,294,18.0,33.0,40,0.00,SCT,OVC,0.01,WeatherDisplay:10.37,2013-05-24 19:45:00,
2013-05-24 15:46:00,65.3,39.0,30.10,NW,304,13.7,19.6,38,0.00,SCT,OVC,0.01,WeatherDisplay:10.37,2013-05-24 19:46:00,
2013-05-24 15:49:00,65.3,37.6,30.11,NW,311,19.6,23.0,36,0.00,SCT,OVC,0.01,WeatherDisplay:10.37,2013-05-24 19:49:00,
2013-05-24 15:50:00,65.2,39.6,30.11,WNW,283,14.8,23.0,39,0.00,SCT,OVC,0.01,WeatherDisplay:10.37,2013-05-24 19:50:00,
2013-05-24 15:51:00,65.0,36.7,30.11,West,268,13.3,20.7,35,0.00,SCT,OVC,0.01,WeatherDisplay:10.37,2013-05-24 19:51:00,
2013-05-24 15:53:00,65.0,36.7,30.11,NNW,337,11.8,17.3,35,0.00,SCT,OVC,0.01,WeatherDisplay:10.37,2013-05-24 19:53:00,
2013-05-24 15:56:00,65.0,37.4,30.11,NNW,329,9.0,18.4,36,0.00,SCT,OVC,0.01,WeatherDisplay:10.37,2013-05-24 19:56:00,
2013-05-24 15:58:00,65.2,38.3,30.11,NNW,345,6.7,13.0,37,0.00,SCT,OVC,0.01,WeatherDisplay:10.37,2013-05-24 19:58:00,
2013-05-24 16:00:00,65.0,37.4,30.11,NW,308,14.0,23.0,36,0.00,SCT,OVC,0.01,WeatherDisplay:10.37,2013-05-24 20:00:00,
2013-05-24 16:02:00,64.8,37.2,30.11,NW,313,19.1,20.7,36,0.00,SCT,OVC,0.01,WeatherDisplay:10.37,2013-05-24 20:02:00,
2013-05-24 16:03:00,64.8,35.0,30.11,NW,308,16.3,23.0,33,0.00,SCT,OVC,0.01,WeatherDisplay:10.37,2013-05-24 20:03:00,
2013-05-24 16:07:00,64.8,36.5,30.11,NNE,24,15.1,20.7,35,0.00,SCT,OVC,0.01,WeatherDisplay:10.37,2013-05-24 20:07:00,
2013-05-24 16:09:00,65.0,38.8,30.11,WNW,298,17.2,19.6,38,0.00,SCT,OVC,0.01,WeatherDisplay:10.37,2013-05-24 20:09:00,
2013-05-24 16:10:00,65.0,37.4,30.11,NNW,342,12.8,19.6,36,0.00,SCT,OVC,0.01,WeatherDisplay:10.37,2013-05-24 20:10:00,
2013-05-24 16:11:00,65.0,37.4,30.11,NNW,336,12.2,17.3,36,0.00,SCT,OVC,0.01,WeatherDisplay:10.37,2013-05-24 20:11:00,
2013-05-24 16:13:00,64.8,36.5,30.11,NNW,330,10.6,13.8,35,0.00,SCT,OVC,0.01,WeatherDisplay:10.37,2013-05-24 20:13:00,
2013-05-24 16:15:00,65.0,39.4,30.11,North,11,4.4,9.2,39,0.00,SCT,OVC,0.01,WeatherDisplay:10.37,2013-05-24 20:15:00,
2013-05-24 16:16:00,65.2,37.6,30.11,North,351,6.9,14.0,36,0.00,SCT,OVC,0.01,WeatherDisplay:10.37,2013-05-24 20:16:00,
2013-05-24 16:18:00,65.3,39.0,30.11,NNW,340,12.3,16.1,38,0.00,SCT,OVC,0.01,WeatherDisplay:10.37,2013-05-24 20:18:00,
2013-05-24 16:19:00,65.3,35.4,30.11,NW,325,17.1,24.2,33,0.00,SCT,OVC,0.01,WeatherDisplay:10.37,2013-05-24 20:19:00,
2013-05-24 16:22:00,65.2,33.8,30.11,NW,317,16.3,23.0,31,0.00,SCT,OVC,0.01,WeatherDisplay:10.37,2013-05-24 20:22:00,
2013-05-24 16:23:00,65.2,33.8,30.11,NW,320,17.2,21.9,31,0.00,SCT,OVC,0.01,WeatherDisplay:10.37,2013-05-24 20:23:00,
2013-05-24 16:27:00,65.0,35.2,30.11,WNW,288,16.7,20.7,33,0.00,SCT,OVC,0.01,WeatherDisplay:10.37,2013-05-24 20:27:00,
2013-05-24 16:28:00,65.0,35.2,30.11,WNW,300,16.1,21.9,33,0.00,SCT,OVC,0.01,WeatherDisplay:10.37,2013-05-24 20:28:00,
2013-05-24 16:30:00,65.0,35.2,30.11,WNW,292,14.4,17.3,33,0.00,SCT,OVC,0.01,WeatherDisplay:10.37,2013-05-24 20:30:00,
2013-05-24 16:32:00,65.0,34.4,30.11,West,280,10.9,16.1,32,0.00,SCT,OVC,0.01,WeatherDisplay:10.37,2013-05-24 20:32:00,
2013-05-24 16:33:00,65.0,34.4,30.11,WNW,287,15.2,18.0,32,0.00,SCT,OVC,0.01,WeatherDisplay:10.37,2013-05-24 20:33:00,
2013-05-24 16:34:00,65.0,34.4,30.11,WNW,296,17.5,23.0,32,0.00,SCT,OVC,0.01,WeatherDisplay:10.37,2013-05-24 20:34:00,
2013-05-24 16:36:00,65.0,35.2,30.11,NW,323,13.1,19.6,33,0.00,SCT,OVC,0.01,WeatherDisplay:10.37,2013-05-24 20:36:00,
2013-05-24 16:37:00,65.2,35.4,30.11,WNW,295,17.7,20.0,33,0.00,SCT,OVC,0.01,WeatherDisplay:10.37,2013-05-24 20:37:00,
2013-05-24 16:38:00,65.2,35.4,30.11,NW,317,14.0,20.7,33,0.00,SCT,OVC,0.01,WeatherDisplay:10.37,2013-05-24 20:38:00,
2013-05-24 16:42:00,65.5,37.8,30.11,NW,313,7.9,10.4,36,0.00,SCT,OVC,0.01,WeatherDisplay:10.37,2013-05-24 20:42:00,
2013-05-24 16:43:00,65.6,37.2,30.11,NNW,348,9.4,14.0,35,0.00,SCT,OVC,0.01,WeatherDisplay:10.37,2013-05-24 20:43:00,
2013-05-24 16:44:00,65.5,35.6,30.11,WNW,296,15.1,18.4,33,0.00,SCT,OVC,0.01,WeatherDisplay:10.37,2013-05-24 20:44:00,
2013-05-24 16:47:00,65.3,36.2,30.11,NNW,328,11.2,12.7,34,0.00,SCT,OVC,0.01,WeatherDisplay:10.37,2013-05-24 20:47:00,
2013-05-24 16:48:00,65.3,36.9,30.11,NNW,339,8.0,17.3,35,0.00,SCT,OVC,0.01,WeatherDisplay:10.37,2013-05-24 20:48:00,
2013-05-24 16:49:00,65.3,36.2,30.11,NW,310,7.9,15.0,34,0.00,SCT,OVC,0.01,WeatherDisplay:10.37,2013-05-24 20:49:00,
2013-05-24 16:50:00,65.3,36.9,30.11,NW,326,12.8,15.0,35,0.00,SCT,OVC,0.01,WeatherDisplay:10.37,2013-05-24 20:50:00,
2013-05-24 16:53:00,65.3,35.4,30.11,NW,313,9.8,13.8,33,0.00,SCT,OVC,0.01,WeatherDisplay:10.37,2013-05-24 20:53:00,
2013-05-24 16:55:00,65.3,36.2,30.11,WNW,303,8.8,16.1,34,0.00,SCT,OVC,0.01,WeatherDisplay:10.37,2013-05-24 20:55:00,
2013-05-24 16:56:00,65.3,36.9,30.11,NW,314,9.5,11.5,35,0.00,SCT,OVC,0.01,WeatherDisplay:10.37,2013-05-24 20:56:00,
2013-05-24 16:58:00,65.2,36.8,30.11,NW,316,10.6,16.0,35,0.00,SCT,OVC,0.01,WeatherDisplay:10.37,2013-05-24 20:58:00,
2013-05-24 16:59:00,65.2,36.1,30.11,NW,319,13.8,18.4,34,0.00,SCT,OVC,0.01,WeatherDisplay:10.37,2013-05-24 20:59:00,
2013-05-24 17:00:00,65.2,37.6,30.11,WNW,303,13.2,17.3,36,0.00,SCT,OVC,0.01,WeatherDisplay:10.37,2013-05-24 21:00:00,
2013-05-24 17:02:00,65.3,39.7,30.11,NW,321,8.6,16.1,39,0.00,FEW,OVC,0.01,WeatherDisplay:10.37,2013-05-24 21:02:00,
2013-05-24 17:04:00,65.5,37.8,30.11,NNW,340,8.9,12.7,36,0.00,FEW,OVC,0.01,WeatherDisplay:10.37,2013-05-24 21:04:00,
2013-05-24 17:05:00,65.5,36.4,30.11,NNW,337,10.8,11.5,34,0.00,FEW,OVC,0.01,WeatherDisplay:10.37,2013-05-24 21:05:00,
2013-05-24 17:06:00,65.5,36.4,30.11,NNW,340,11.7,13.8,34,0.00,FEW,OVC,0.01,WeatherDisplay:10.37,2013-05-24 21:06:00,
2013-05-24 17:07:00,65.5,36.4,30.11,NNE,17,8.5,12.7,34,0.00,FEW,OVC,0.01,WeatherDisplay:10.37,2013-05-24 21:07:00,
2013-05-24 17:09:00,65.3,36.2,30.11,NW,323,4.9,12.7,34,0.00,FEW,OVC,0.01,WeatherDisplay:10.37,2013-05-24 21:09:00,
2013-05-24 17:12:00,65.5,37.1,30.11,NW,313,10.2,18.4,35,0.00,FEW,OVC,0.01,WeatherDisplay:10.37,2013-05-24 21:12:00,
2013-05-24 17:13:00,65.6,37.9,30.11,WNW,296,6.2,10.4,36,0.00,FEW,OVC,0.01,WeatherDisplay:10.37,2013-05-24 21:13:00,
2013-05-24 17:14:00,65.6,34.9,30.11,NNW,331,13.6,16.1,32,0.00,FEW,OVC,0.01,WeatherDisplay:10.37,2013-05-24 21:14:00,
2013-05-24 17:15:00,65.6,35.7,30.11,NW,312,9.4,20.7,33,0.00,FEW,OVC,0.01,WeatherDisplay:10.37,2013-05-24 21:15:00,
2013-05-24 17:16:00,65.6,35.7,30.11,NNW,331,13.2,15.0,33,0.00,FEW,OVC,0.01,WeatherDisplay:10.37,2013-05-24 21:16:00,
2013-05-24 17:18:00,65.6,35.7,30.11,NW,309,13.0,16.1,33,0.00,FEW,OVC,0.01,WeatherDisplay:10.37,2013-05-24 21:18:00,
2013-05-24 17:21:00,65.6,37.2,30.11,WNW,299,13.9,20.7,35,0.00,FEW,OVC,0.01,WeatherDisplay:10.37,2013-05-24 21:21:00,
2013-05-24 17:22:00,65.6,37.9,30.11,West,279,9.3,17.3,36,0.00,FEW,OVC,0.01,WeatherDisplay:10.37,2013-05-24 21:22:00,
2013-05-24 17:25:00,65.8,38.8,30.11,NW,321,5.6,11.5,37,0.00,FEW,OVC,0.01,WeatherDisplay:10.37,2013-05-24 21:25:00,
2013-05-24 17:26:00,66.0,39.0,30.11,NW,321,4.9,14.0,37,0.00,FEW,OVC,0.01,WeatherDisplay:10.37,2013-05-24 21:26:00,
2013-05-24 17:27:00,66.0,39.0,30.11,NW,308,15.9,19.6,37,0.00,FEW,OVC,0.01,WeatherDisplay:10.37,2013-05-24 21:27:00,
2013-05-24 17:29:00,66.0,37.5,30.11,NW,324,9.6,18.4,35,0.00,FEW,OVC,0.01,WeatherDisplay:10.37,2013-05-24 21:29:00,
2013-05-24 17:30:00,65.8,35.1,30.11,WNW,299,10.0,12.7,32,0.00,FEW,OVC,0.01,WeatherDisplay:10.37,2013-05-24 21:30:00,
2013-05-24 17:31:00,65.8,35.1,30.11,NW,315,8.3,12.7,32,0.00,FEW,OVC,0.01,WeatherDisplay:10.37,2013-05-24 21:31:00,
2013-05-24 17:32:00,65.8,37.4,30.11,WNW,296,7.4,11.5,35,0.00,FEW,OVC,0.01,WeatherDisplay:10.37,2013-05-24 21:32:00,
2013-05-24 17:37:00,65.8,37.4,30.12,North,351,8.4,13.8,35,0.00,FEW,OVC,0.01,WeatherDisplay:10.37,2013-05-24 21:37:00,
2013-05-24 17:38:00,65.6,37.2,30.12,NNW,345,4.6,10.4,35,0.00,FEW,OVC,0.01,WeatherDisplay:10.37,2013-05-24 21:38:00,
2013-05-24 17:39:00,65.6,37.9,30.12,NNW,342,3.2,9.2,36,0.00,FEW,OVC,0.01,WeatherDisplay:10.37,2013-05-24 21:39:00,
2013-05-24 17:40:00,65.8,38.1,30.12,NW,308,4.2,10.0,36,0.00,FEW,OVC,0.01,WeatherDisplay:10.37,2013-05-24 21:40:00,
2013-05-24 17:44:00,65.6,37.2,30.12,North,360,4.3,8.1,35,0.00,FEW,OVC,0.01,WeatherDisplay:10.37,2013-05-24 21:44:00,
2013-05-24 17:45:00,65.6,36.5,30.12,NNW,347,3.5,10.4,34,0.00,FEW,OVC,0.01,WeatherDisplay:10.37,2013-05-24 21:45:00,
2013-05-24 17:46:00,65.8,38.1,30.12,NNW,330,7.6,9.0,36,0.00,FEW,OVC,0.01,WeatherDisplay:10.37,2013-05-24 21:46:00,
2013-05-24 17:48:00,65.8,35.1,30.12,NW,318,6.4,11.5,32,0.00,FEW,OVC,0.01,WeatherDisplay:10.37,2013-05-24 21:48:00,
2013-05-24 17:50:00,66.0,36.1,30.12,NNW,342,12.8,15.0,33,0.00,FEW,OVC,0.01,WeatherDisplay:10.37,2013-05-24 21:50:00,
2013-05-24 17:52:00,66.0,35.3,30.12,NW,319,12.9,18.4,32,0.00,FEW,OVC,0.01,WeatherDisplay:10.37,2013-05-24 21:52:00,
2013-05-24 17:53:00,66.0,35.3,30.12,NNW,331,11.5,15.0,32,0.00,FEW,OVC,0.01,WeatherDisplay:10.37,2013-05-24 21:53:00,
2013-05-24 17:54:00,66.0,35.3,30.12,NW,318,9.7,13.8,32,0.00,FEW,OVC,0.01,WeatherDisplay:10.37,2013-05-24 21:54:00,
2013-05-24 17:55:00,65.8,35.9,30.12,NW,322,9.6,16.1,33,0.00,FEW,OVC,0.01,WeatherDisplay:10.37,2013-05-24 21:55:00,
2013-05-24 17:56:00,65.8,34.3,30.12,WNW,301,8.2,12.7,31,0.00,FEW,OVC,0.01,WeatherDisplay:10.37,2013-05-24 21:56:00,
2013-05-24 17:58:00,66.0,37.5,30.12,NW,317,7.6,11.5,35,0.00,FEW,OVC,0.01,WeatherDisplay:10.37,2013-05-24 21:58:00,
2013-05-24 18:00:00,66.0,36.8,30.12,WNW,296,9.7,14.0,34,0.00,FEW,OVC,0.01,WeatherDisplay:10.37,2013-05-24 22:00:00,
2013-05-24 18:01:00,66.0,37.5,30.12,NNW,338,11.1,13.8,35,0.00,FEW,OVC,0.01,WeatherDisplay:10.37,2013-05-24 22:01:00,
2013-05-24 18:05:00,66.1,33.7,30.12,NNW,338,13.9,21.0,30,0.00,FEW,OVC,0.01,WeatherDisplay:10.37,2013-05-24 22:05:00,
2013-05-24 18:06:00,66.1,36.1,30.12,NW,310,16.6,20.7,33,0.00,FEW,OVC,0.01,WeatherDisplay:10.37,2013-05-24 22:06:00,
2013-05-24 18:07:00,66.1,34.6,30.12,NNW,327,14.5,19.6,31,0.00,FEW,OVC,0.01,WeatherDisplay:10.37,2013-05-24 22:07:00,
2013-05-24 18:10:00,66.0,31.9,30.12,NW,313,13.5,17.3,28,0.00,FEW,OVC,0.01,WeatherDisplay:10.37,2013-05-24 22:10:00,
2013-05-24 18:12:00,65.8,34.3,30.12,NNW,329,12.7,17.3,31,0.00,FEW,OVC,0.01,WeatherDisplay:10.37,2013-05-24 22:12:00,
2013-05-24 18:13:00,65.8,33.5,30.12,WNW,290,12.2,18.0,30,0.00,FEW,OVC,0.01,WeatherDisplay:10.37,2013-05-24 22:13:00,
2013-05-24 18:15:00,65.8,33.5,30.12,NW,311,15.0,23.0,30,0.00,FEW,OVC,0.01,WeatherDisplay:10.37,2013-05-24 22:15:00,
2013-05-24 18:17:00,65.8,31.8,30.12,WNW,296,14.9,23.0,28,0.00,FEW,OVC,0.01,WeatherDisplay:10.37,2013-05-24 22:17:00,
2013-05-24 18:18:00,65.8,33.5,30.12,WNW,302,8.0,16.1,30,0.00,FEW,OVC,0.01,WeatherDisplay:10.37,2013-05-24 22:18:00,
2013-05-24 18:20:00,65.8,35.1,30.12,North,351,6.6,12.0,32,0.00,FEW,OVC,0.01,WeatherDisplay:10.37,2013-05-24 22:20:00,
2013-05-24 18:22:00,66.0,34.5,30.12,NW,311,7.3,10.0,31,0.00,FEW,OVC,0.01,WeatherDisplay:10.37,2013-05-24 22:22:00,
2013-05-24 18:23:00,66.0,34.5,30.12,NW,325,6.0,12.7,31,0.00,FEW,OVC,0.01,WeatherDisplay:10.37,2013-05-24 22:23:00,
2013-05-24 18:24:00,66.0,36.8,30.12,WNW,301,10.7,11.5,34,0.00,FEW,OVC,0.01,WeatherDisplay:10.37,2013-05-24 22:24:00,
2013-05-24 18:25:00,66.0,34.5,30.12,NW,312,9.8,12.7,31,0.00,FEW,OVC,0.01,WeatherDisplay:10.37,2013-05-24 22:25:00,
2013-05-24 18:28:00,66.0,32.8,30.12,NW,323,10.3,15.0,29,0.00,FEW,OVC,0.01,WeatherDisplay:10.37,2013-05-24 22:28:00,
2013-05-24 18:29:00,66.0,34.5,30.12,NW,306,12.6,15.0,31,0.00,FEW,OVC,0.01,WeatherDisplay:10.37,2013-05-24 22:29:00,
2013-05-24 18:31:00,66.0,34.5,30.12,NW,304,9.9,11.5,31,0.00,FEW,OVC,0.01,WeatherDisplay:10.37,2013-05-24 22:31:00,
2013-05-24 18:34:00,66.0,35.3,30.12,NW,312,9.0,11.5,32,0.00,FEW,OVC,0.01,WeatherDisplay:10.37,2013-05-24 22:34:00,
2013-05-24 18:36:00,66.0,31.9,30.13,NW,306,14.2,14.2,28,0.00,FEW,OVC,0.01,WeatherDisplay:10.37,2013-05-24 22:36:00,
2013-05-24 18:38:00,65.8,32.6,30.12,WNW,303,12.9,19.0,29,0.00,FEW,OVC,0.01,WeatherDisplay:10.37,2013-05-24 22:38:00,
2013-05-24 18:39:00,65.8,31.8,30.12,WNW,300,15.4,19.6,28,0.00,FEW,OVC,0.01,WeatherDisplay:10.37,2013-05-24 22:39:00,
2013-05-24 18:40:00,65.8,32.6,30.13,NW,313,12.6,18.0,29,0.00,FEW,OVC,0.01,WeatherDisplay:10.37,2013-05-24 22:40:00,
2013-05-24 18:41:00,65.6,31.6,30.13,North,349,13.8,19.6,28,0.00,FEW,OVC,0.01,WeatherDisplay:10.37,2013-05-24 22:41:00,
2013-05-24 18:43:00,65.6,30.7,30.13,NW,305,15.1,19.6,27,0.00,FEW,OVC,0.01,WeatherDisplay:10.37,2013-05-24 22:43:00,
2013-05-24 18:44:00,65.6,31.6,30.12,NNW,330,13.9,19.6,28,0.00,FEW,OVC,0.01,WeatherDisplay:10.37,2013-05-24 22:44:00,
2013-05-24 18:45:00,65.6,31.6,30.12,NW,325,14.3,19.6,28,0.00,FEW,OVC,0.01,WeatherDisplay:10.37,2013-05-24 22:45:00,
2013-05-24 18:46:00,65.6,31.6,30.12,NW,322,14.4,19.6,28,0.00,FEW,OVC,0.01,WeatherDisplay:10.37,2013-05-24 22:46:00,
2013-05-24 18:48:00,65.5,32.4,30.12,North,360,9.0,16.1,29,0.00,FEW,OVC,0.01,WeatherDisplay:10.37,2013-05-24 22:48:00,
2013-05-24 18:49:00,65.5,33.2,30.12,NNW,327,10.8,16.0,30,0.00,FEW,OVC,0.01,WeatherDisplay:10.37,2013-05-24 22:49:00,
2013-05-24 18:51:00,65.5,31.5,30.12,NNW,332,17.9,29.9,28,0.00,FEW,OVC,0.01,WeatherDisplay:10.37,2013-05-24 22:51:00,
2013-05-24 18:54:00,65.5,30.6,30.13,NW,321,16.2,19.6,27,0.00,FEW,OVC,0.01,WeatherDisplay:10.37,2013-05-24 22:54:00,
2013-05-24 18:55:00,65.5,30.6,30.13,NNW,338,15.8,19.6,27,0.00,FEW,OVC,0.01,WeatherDisplay:10.37,2013-05-24 22:55:00,
2013-05-24 18:56:00,65.5,30.6,30.13,NW,323,11.1,17.3,27,0.00,FEW,OVC,0.01,WeatherDisplay:10.37,2013-05-24 22:56:00,
2013-05-24 18:57:00,65.3,32.2,30.13,NW,321,15.9,21.0,29,0.00,FEW,OVC,0.01,WeatherDisplay:10.37,2013-05-24 22:57:00,
2013-05-24 19:00:00,65.3,31.3,30.13,NW,325,13.9,19.6,28,0.00,FEW,OVC,0.01,WeatherDisplay:10.37,2013-05-24 23:00:00,
2013-05-24 19:01:00,65.3,31.3,30.13,NW,325,13.4,18.4,28,0.00,FEW,OVC,0.01,WeatherDisplay:10.37,2013-05-24 23:01:00,
2013-05-24 19:03:00,65.3,31.3,30.13,NW,317,11.4,18.4,28,0.00,CLR,OVC,0.01,WeatherDisplay:10.37,2013-05-24 23:03:00,
2013-05-24 19:05:00,65.3,31.3,30.13,NW,314,10.2,16.1,28,0.00,CLR,OVC,0.01,WeatherDisplay:10.37,2013-05-24 23:05:00,
2013-05-24 19:08:00,65.2,33.0,30.13,NW,317,6.8,11.5,30,0.00,CLR,OVC,0.01,WeatherDisplay:10.37,2013-05-24 23:08:00,
2013-05-24 19:09:00,65.2,32.1,30.13,NNW,339,8.9,15.0,29,0.00,CLR,OVC,0.01,WeatherDisplay:10.37,2013-05-24 23:09:00,
2013-05-24 19:10:00,65.2,32.1,30.13,NW,318,9.1,12.7,29,0.00,CLR,OVC,0.01,WeatherDisplay:10.37,2013-05-24 23:10:00,
2013-05-24 19:12:00,65.0,31.9,30.13,NW,323,11.4,16.0,29,0.00,CLR,OVC,0.01,WeatherDisplay:10.37,2013-05-24 23:12:00,
2013-05-24 19:13:00,65.0,31.1,30.13,NW,310,13.0,16.1,28,0.00,CLR,OVC,0.01,WeatherDisplay:10.37,2013-05-24 23:13:00,
2013-05-24 19:14:00,65.0,32.8,30.13,NNW,342,13.3,21.0,30,0.00,CLR,OVC,0.01,WeatherDisplay:10.37,2013-05-24 23:14:00,
2013-05-24 19:16:00,65.0,31.1,30.13,NW,314,10.4,12.7,28,0.00,CLR,OVC,0.01,WeatherDisplay:10.37,2013-05-24 23:16:00,
2013-05-24 19:18:00,64.8,32.6,30.13,NW,322,10.9,13.8,30,0.00,CLR,OVC,0.01,WeatherDisplay:10.37,2013-05-24 23:18:00,
2013-05-24 19:19:00,64.8,32.6,30.13,NNW,346,11.3,18.0,30,0.00,CLR,OVC,0.01,WeatherDisplay:10.37,2013-05-24 23:19:00,
2013-05-24 19:20:00,64.7,32.5,30.13,NNW,333,16.5,16.5,30,0.00,CLR,OVC,0.01,WeatherDisplay:10.37,2013-05-24 23:20:00,
2013-05-24 19:22:00,64.7,30.8,30.14,NW,322,14.6,19.6,28,0.00,CLR,OVC,0.01,WeatherDisplay:10.37,2013-05-24 23:22:00,
2013-05-24 19:24:00,64.7,33.3,30.14,NW,315,6.0,15.0,31,0.00,CLR,OVC,0.01,WeatherDisplay:10.37,2013-05-24 23:24:00,
2013-05-24 19:25:00,64.7,33.3,30.14,NW,311,8.3,13.0,31,0.00,CLR,OVC,0.01,WeatherDisplay:10.37,2013-05-24 23:25:00,
2013-05-24 19:27:00,64.5,32.4,30.14,NW,304,11.2,13.8,30,0.00,CLR,OVC,0.01,WeatherDisplay:10.37,2013-05-24 23:27:00,
2013-05-24 19:28:00,64.5,33.2,30.14,NW,315,9.3,17.3,31,0.00,CLR,OVC,0.01,WeatherDisplay:10.37,2013-05-24 23:28:00,
2013-05-24 19:30:00,64.3,33.0,30.14,NW,324,10.0,20.0,31,0.00,CLR,OVC,0.01,WeatherDisplay:10.37,2013-05-24 23:30:00,
2013-05-24 19:31:00,64.3,33.0,30.14,NW,317,11.3,13.0,31,0.00,CLR,OVC,0.01,WeatherDisplay:10.37,2013-05-24 23:31:00,
2013-05-24 19:33:00,64.2,33.7,30.14,NNW,335,8.1,13.8,32,0.00,CLR,OVC,0.01,WeatherDisplay:10.37,2013-05-24 23:33:00,
2013-05-24 19:34:00,64.2,32.9,30.14,WNW,303,8.3,13.8,31,0.00,CLR,OVC,0.01,WeatherDisplay:10.37,2013-05-24 23:34:00,
2013-05-24 19:36:00,64.2,32.9,30.15,NW,314,9.2,11.5,31,0.00,CLR,OVC,0.01,WeatherDisplay:10.37,2013-05-24 23:36:00,
2013-05-24 19:37:00,64.2,32.9,30.15,North,351,8.4,13.8,31,0.00,CLR,OVC,0.01,WeatherDisplay:10.37,2013-05-24 23:37:00,
2013-05-24 19:38:00,64.2,32.9,30.15,NNW,332,9.4,13.8,31,0.00,CLR,OVC,0.01,WeatherDisplay:10.37,2013-05-24 23:38:00,
2013-05-24 19:40:00,64.0,32.7,30.15,NNW,334,7.6,11.5,31,0.00,CLR,OVC,0.01,WeatherDisplay:10.37,2013-05-24 23:40:00,
2013-05-24 19:41:00,64.0,32.7,30.15,NNW,338,8.8,16.0,31,0.00,CLR,OVC,0.01,WeatherDisplay:10.37,2013-05-24 23:41:00,
2013-05-24 19:42:00,64.0,31.9,30.15,NNW,333,11.9,16.1,30,0.00,CLR,OVC,0.01,WeatherDisplay:10.37,2013-05-24 23:42:00,
2013-05-24 19:46:00,63.9,32.6,30.15,NW,314,17.3,20.7,31,0.00,CLR,OVC,0.01,WeatherDisplay:10.37,2013-05-24 23:46:00,
2013-05-24 19:47:00,63.9,31.8,30.15,NW,314,14.2,19.6,30,0.00,CLR,OVC,0.01,WeatherDisplay:10.37,2013-05-24 23:47:00,
2013-05-24 19:48:00,63.9,31.8,30.15,NW,317,13.4,16.1,30,0.00,CLR,OVC,0.01,WeatherDisplay:10.37,2013-05-24 23:48:00,
2013-05-24 19:52:00,63.5,31.5,30.15,NNW,338,9.9,12.7,30,0.00,CLR,OVC,0.01,WeatherDisplay:10.37,2013-05-24 23:52:00,
2013-05-24 19:53:00,63.5,31.5,30.15,WNW,295,13.6,18.0,30,0.00,CLR,OVC,0.01,WeatherDisplay:10.37,2013-05-24 23:53:00,
2013-05-24 19:54:00,63.5,31.5,30.15,NNW,335,16.6,23.0,30,0.00,CLR,OVC,0.01,WeatherDisplay:10.37,2013-05-24 23:54:00,
2013-05-24 19:56:00,63.5,31.5,30.15,NW,317,11.8,15.0,30,0.00,CLR,OVC,0.01,WeatherDisplay:10.37,2013-05-24 23:56:00,
2013-05-24 19:57:00,63.4,32.2,30.15,WNW,300,8.5,16.1,31,0.00,CLR,OVC,0.01,WeatherDisplay:10.37,2013-05-24 23:57:00,
2013-05-24 19:58:00,63.4,32.2,30.15,NNW,336,11.5,15.0,31,0.00,CLR,OVC,0.01,WeatherDisplay:10.37,2013-05-24 23:58:00,
2013-05-24 20:00:00,63.2,32.0,30.15,NW,309,12.5,15.0,31,0.00,CLR,OVC,0.01,WeatherDisplay:10.37,2013-05-25 00:00:00,
2013-05-24 20:02:00,63.2,32.0,30.15,NW,315,11.4,13.8,31,0.00,CLR,OVC,0.01,WeatherDisplay:10.37,2013-05-25 00:02:00,
2013-05-24 20:04:00,63.1,31.9,30.16,NW,315,12.5,17.3,31,0.00,CLR,OVC,0.01,WeatherDisplay:10.37,2013-05-25 00:04:00,
2013-05-24 20:06:00,63.1,31.9,30.16,NW,323,11.4,16.1,31,0.00,CLR,OVC,0.01,WeatherDisplay:10.37,2013-05-25 00:06:00,
2013-05-24 20:08:00,62.9,31.0,30.16,North,360,11.7,19.6,30,0.00,CLR,OVC,0.01,WeatherDisplay:10.37,2013-05-25 00:08:00,
2013-05-24 20:09:00,62.9,31.0,30.16,NW,308,13.4,19.6,30,0.00,CLR,OVC,0.01,WeatherDisplay:10.37,2013-05-25 00:09:00,
2013-05-24 20:11:00,62.9,31.0,30.16,North,360,11.7,19.6,30,0.00,CLR,OVC,0.01,WeatherDisplay:10.37,2013-05-25 00:11:00,
2013-05-24 20:13:00,62.9,31.0,30.16,North,360,11.7,19.6,30,0.00,CLR,OVC,0.01,WeatherDisplay:10.37,2013-05-25 00:13:00,
2013-05-24 20:14:00,62.9,31.0,30.16,North,360,11.7,19.6,30,0.00,CLR,OVC,0.01,WeatherDisplay:10.37,2013-05-25 00:14:00,
2013-05-24 20:15:00,62.9,31.0,30.16,North,360,11.7,19.6,30,0.00,CLR,OVC,0.01,WeatherDisplay:10.37,2013-05-25 00:15:00,
2013-05-24 20:17:00,62.9,31.0,30.16,North,360,11.7,19.6,30,0.00,CLR,OVC,0.01,WeatherDisplay:10.37,2013-05-25 00:17:00,
2013-05-24 20:24:00,62.1,31.9,30.16,NW,311,0.0,19.6,32,0.00,CLR,OVC,0.01,WeatherDisplay:10.37,2013-05-25 00:24:00,
2013-05-24 20:25:00,62.1,31.9,30.16,NNW,331,1.5,8.0,32,0.00,RA,OVC,0.01,WeatherDisplay:10.37,2013-05-25 00:25:00,
2013-05-24 20:26:00,62.0,31.8,30.16,NW,321,5.4,11.5,32,0.00,RA,OVC,0.01,WeatherDisplay:10.37,2013-05-25 00:26:00,
2013-05-24 20:27:00,62.0,31.8,30.16,NW,316,5.5,7.0,32,0.00,RA,OVC,0.01,WeatherDisplay:10.37,2013-05-25 00:27:00,
2013-05-24 20:30:00,61.8,31.6,30.16,NW,323,7.2,9.0,32,0.00,RA,OVC,0.01,WeatherDisplay:10.37,2013-05-25 00:30:00,
2013-05-24 20:31:00,61.8,31.6,30.16,NW,323,5.7,11.5,32,0.00,RA,OVC,0.01,WeatherDisplay:10.37,2013-05-25 00:31:00,
2013-05-24 20:32:00,61.8,31.6,30.16,NW,325,5.4,9.2,32,0.00,RA,OVC,0.01,WeatherDisplay:10.37,2013-05-25 00:32:00,
2013-05-24 20:34:00,61.5,32.1,30.17,NW,325,3.7,6.9,33,0.00,RA,OVC,0.01,WeatherDisplay:10.37,2013-05-25 00:34:00,
2013-05-24 20:36:00,61.3,32.7,30.17,NW,323,5.6,10.0,34,0.00,CLR,OVC,0.01,WeatherDisplay:10.37,2013-05-25 00:36:00,
2013-05-24 20:37:00,61.2,31.8,30.17,NNW,336,5.6,10.4,33,0.00,CLR,OVC,0.01,WeatherDisplay:10.37,2013-05-25 00:37:00,
2013-05-24 20:38:00,61.2,32.6,30.17,NNW,327,4.8,5.8,34,0.00,CLR,OVC,0.01,WeatherDisplay:10.37,2013-05-25 00:38:00,
2013-05-24 20:41:00,61.2,31.8,30.17,NW,321,7.5,11.5,33,0.00,CLR,OVC,0.01,WeatherDisplay:10.37,2013-05-25 00:41:00,
2013-05-24 20:43:00,61.0,32.4,30.17,NW,317,4.2,6.9,34,0.00,CLR,OVC,0.01,WeatherDisplay:10.37,2013-05-25 00:43:00,
2013-05-24 20:44:00,61.0,32.4,30.17,NW,318,4.3,9.2,34,0.00,CLR,OVC,0.01,WeatherDisplay:10.37,2013-05-25 00:44:00,
2013-05-24 20:45:00,61.0,32.4,30.17,NW,319,4.8,6.9,34,0.00,CLR,OVC,0.01,WeatherDisplay:10.37,2013-05-25 00:45:00,
2013-05-24 20:49:00,60.7,32.9,30.17,NNW,340,5.7,8.0,35,0.00,CLR,OVC,0.01,WeatherDisplay:10.37,2013-05-25 00:49:00,
2013-05-24 20:50:00,60.7,32.9,30.17,NNW,327,6.3,10.4,35,0.00,CLR,OVC,0.01,WeatherDisplay:10.37,2013-05-25 00:50:00,
2013-05-24 20:51:00,60.5,33.4,30.17,NW,319,6.0,12.0,36,0.00,CLR,OVC,0.01,WeatherDisplay:10.37,2013-05-25 00:51:00,
2013-05-24 20:52:00,60.5,32.7,30.17,North,5,7.3,11.5,35,0.00,CLR,OVC,0.01,WeatherDisplay:10.37,2013-05-25 00:52:00,
2013-05-24 20:54:00,60.5,32.7,30.17,NW,323,6.9,11.5,35,0.00,CLR,OVC,0.01,WeatherDisplay:10.37,2013-05-25 00:54:00,
2013-05-24 20:55:00,60.5,32.7,30.17,NNW,327,5.7,11.5,35,0.00,CLR,OVC,0.01,WeatherDisplay:10.37,2013-05-25 00:55:00,
2013-05-24 20:56:00,60.4,32.6,30.17,North,351,6.6,11.5,35,0.00,CLR,OVC,0.01,WeatherDisplay:10.37,2013-05-25 00:56:00,
2013-05-24 20:58:00,60.4,32.6,30.17,NNW,328,6.8,12.0,35,0.00,CLR,OVC,0.01,WeatherDisplay:10.37,2013-05-25 00:58:00,
2013-05-24 21:00:00,60.4,32.6,30.17,NW,326,9.6,11.5,35,0.00,CLR,OVC,0.01,WeatherDisplay:10.37,2013-05-25 01:00:00,
2013-05-24 21:02:00,60.4,32.6,30.17,NW,325,8.2,11.5,35,0.00,CLR,OVC,0.01,WeatherDisplay:10.37,2013-05-25 01:02:00,
2013-05-24 21:03:00,60.4,32.6,30.17,North,349,8.9,12.0,35,0.00,CLR,OVC,0.01,WeatherDisplay:10.37,2013-05-25 01:03:00,
2013-05-24 21:04:00,60.4,32.6,30.17,NW,312,10.0,12.7,35,0.00,CLR,OVC,0.01,WeatherDisplay:10.37,2013-05-25 01:04:00,
2013-05-24 21:05:00,60.4,32.6,30.17,NNW,327,5.9,12.7,35,0.00,CLR,OVC,0.01,WeatherDisplay:10.37,2013-05-25 01:05:00,
2013-05-24 21:07:00,60.4,33.3,30.18,NW,317,7.9,11.5,36,0.00,CLR,OVC,0.01,WeatherDisplay:10.37,2013-05-25 01:07:00,
2013-05-24 21:09:00,60.2,32.4,30.18,NW,324,6.6,11.5,35,0.00,CLR,OVC,0.01,WeatherDisplay:10.37,2013-05-25 01:09:00,
2013-05-24 21:10:00,60.2,32.4,30.18,NW,317,7.4,11.5,35,0.00,CLR,OVC,0.01,WeatherDisplay:10.37,2013-05-25 01:10:00,
2013-05-24 21:12:00,60.2,32.4,30.18,NW,325,10.1,13.0,35,0.00,CLR,OVC,0.01,WeatherDisplay:10.37,2013-05-25 01:12:00,
2013-05-24 21:14:00,60.4,32.6,30.18,NNW,331,10.5,13.8,35,0.00,CLR,OVC,0.01,WeatherDisplay:10.37,2013-05-25 01:14:00,
2013-05-24 21:16:00,60.2,32.4,30.18,NW,318,8.5,11.5,35,0.00,CLR,OVC,0.01,WeatherDisplay:10.37,2013-05-25 01:16:00,
2013-05-24 21:17:00,60.2,33.1,30.18,NW,322,5.6,11.5,36,0.00,CLR,OVC,0.01,WeatherDisplay:10.37,2013-05-25 01:17:00,
2013-05-24 21:18:00,60.2,32.4,30.18,NNW,327,8.0,10.4,35,0.00,CLR,OVC,0.01,WeatherDisplay:10.37,2013-05-25 01:18:00,
2013-05-24 21:20:00,60.1,32.3,30.19,NW,311,10.5,12.7,35,0.00,CLR,OVC,0.01,WeatherDisplay:10.37,2013-05-25 01:20:00,
2013-05-24 21:21:00,60.1,32.3,30.19,NW,315,10.6,12.7,35,0.00,CLR,OVC,0.01,WeatherDisplay:10.37,2013-05-25 01:21:00,
2013-05-24 21:22:00,60.1,32.3,30.19,NW,311,10.8,12.7,35,0.00,CLR,OVC,0.01,WeatherDisplay:10.37,2013-05-25 01:22:00,
2013-05-24 21:25:00,59.9,32.9,30.19,NNW,328,9.6,12.7,36,0.00,CLR,OVC,0.01,WeatherDisplay:10.37,2013-05-25 01:25:00,
2013-05-24 21:26:00,59.9,32.9,30.19,NW,313,8.8,11.5,36,0.00,CLR,OVC,0.01,WeatherDisplay:10.37,2013-05-25 01:26:00,
2013-05-24 21:28:00,59.9,33.5,30.19,NW,319,9.2,13.8,37,0.00,CLR,OVC,0.01,WeatherDisplay:10.37,2013-05-25 01:28:00,
2013-05-24 21:29:00,59.8,34.1,30.19,NW,322,5.3,9.2,38,0.00,CLR,OVC,0.01,WeatherDisplay:10.37,2013-05-25 01:29:00,
2013-05-24 21:31:00,59.6,33.3,30.19,NW,306,6.6,13.8,37,0.00,CLR,OVC,0.01,WeatherDisplay:10.37,2013-05-25 01:31:00,
2013-05-24 21:32:00,59.6,33.3,30.19,NW,317,5.8,9.0,37,0.00,CLR,OVC,0.01,WeatherDisplay:10.37,2013-05-25 01:32:00,
2013-05-24 21:33:00,59.5,33.2,30.19,NW,315,7.1,10.0,37,0.00,CLR,OVC,0.01,WeatherDisplay:10.37,2013-05-25 01:33:00,
2013-05-24 21:37:00,59.5,33.2,30.19,NNW,331,8.9,11.5,37,0.00,CLR,OVC,0.01,WeatherDisplay:10.37,2013-05-25 01:37:00,
2013-05-24 21:38:00,59.3,33.0,30.19,NNW,330,6.7,10.4,37,0.00,CLR,OVC,0.01,WeatherDisplay:10.37,2013-05-25 01:38:00,
2013-05-24 21:39:00,59.3,33.0,30.19,NNW,329,8.8,12.0,37,0.00,CLR,OVC,0.01,WeatherDisplay:10.37,2013-05-25 01:39:00,
2013-05-24 21:40:00,59.3,33.0,30.19,NW,325,6.0,12.7,37,0.00,CLR,OVC,0.01,WeatherDisplay:10.37,2013-05-25 01:40:00,
2013-05-24 21:42:00,59.3,33.7,30.19,NW,322,7.2,10.0,38,0.00,CLR,OVC,0.01,WeatherDisplay:10.37,2013-05-25 01:42:00,
2013-05-24 21:43:00,59.3,33.0,30.19,NW,315,7.8,11.5,37,0.00,CLR,OVC,0.01,WeatherDisplay:10.37,2013-05-25 01:43:00,
2013-05-24 21:45:00,59.3,33.7,30.19,NNW,331,6.9,12.7,38,0.00,CLR,OVC,0.01,WeatherDisplay:10.37,2013-05-25 01:45:00,
2013-05-24 21:47:00,59.3,33.7,30.19,NW,319,7.4,15.0,38,0.00,CLR,OVC,0.01,WeatherDisplay:10.37,2013-05-25 01:47:00,
2013-05-24 21:49:00,59.3,33.7,30.20,NW,305,6.4,10.4,38,0.00,CLR,OVC,0.01,WeatherDisplay:10.37,2013-05-25 01:49:00,
2013-05-24 21:53:00,58.9,34.0,30.20,NW,310,2.5,5.8,39,0.00,CLR,OVC,0.01,WeatherDisplay:10.37,2013-05-25 01:53:00,
2013-05-24 21:54:00,58.7,33.8,30.20,WNW,302,3.1,6.0,39,0.00,CLR,OVC,0.01,WeatherDisplay:10.37,2013-05-25 01:54:00,
2013-05-24 21:55:00,58.7,33.8,30.20,NW,304,5.4,8.0,39,0.00,CLR,OVC,0.01,WeatherDisplay:10.37,2013-05-25 01:55:00,
2013-05-24 21:56:00,58.7,33.8,30.20,NW,311,6.4,9.2,39,0.00,CLR,OVC,0.01,WeatherDisplay:10.37,2013-05-25 01:56:00,
2013-05-24 21:59:00,58.7,33.8,30.20,NW,310,3.3,4.6,39,0.00,CLR,OVC,0.01,WeatherDisplay:10.37,2013-05-25 01:59:00,
2013-05-24 22:00:00,58.6,33.7,30.20,NW,310,3.0,3.5,39,0.00,CLR,OVC,0.01,WeatherDisplay:10.37,2013-05-25 02:00:00,
2013-05-24 22:01:00,58.6,33.7,30.20,NW,310,3.7,4.6,39,0.00,CLR,OVC,0.01,WeatherDisplay:10.37,2013-05-25 02:01:00,
2013-05-24 22:03:00,58.6,33.7,30.20,NW,310,0.0,0.0,39,0.00,CLR,OVC,0.01,WeatherDisplay:10.37,2013-05-25 02:03:00,
2013-05-24 22:06:00,58.4,34.2,30.22,NW,310,0.5,2.3,40,0.00,CLR,OVC,0.01,WeatherDisplay:10.37,2013-05-25 02:06:00,
2013-05-24 22:07:00,58.4,34.2,30.22,NW,310,0.6,2.3,40,0.00,CLR,OVC,0.01,WeatherDisplay:10.37,2013-05-25 02:07:00,
2013-05-24 22:08:00,58.3,34.1,30.22,NW,310,0.7,2.0,40,0.00,CLR,OVC,0.01,WeatherDisplay:10.37,2013-05-25 02:08:00,
2013-05-24 22:11:00,58.1,33.9,30.22,NW,310,0.0,0.0,40,0.00,CLR,OVC,0.01,WeatherDisplay:10.37,2013-05-25 02:11:00,
2013-05-24 22:12:00,58.1,33.9,30.22,NW,310,0.0,0.0,40,0.00,CLR,OVC,0.01,WeatherDisplay:10.37,2013-05-25 02:12:00,
2013-05-24 22:13:00,58.1,33.9,30.22,NW,310,0.3,0.0,40,0.00,CLR,OVC,0.01,WeatherDisplay:10.37,2013-05-25 02:13:00,
2013-05-24 22:14:00,58.1,33.9,30.22,NW,310,0.0,2.3,40,0.00,CLR,OVC,0.01,WeatherDisplay:10.37,2013-05-25 02:14:00,
2013-05-24 22:17:00,58.1,34.5,30.22,NW,310,2.1,3.0,41,0.00,CLR,OVC,0.01,WeatherDisplay:10.37,2013-05-25 02:17:00,
2013-05-24 22:18:00,58.0,35.0,30.22,NW,310,3.1,5.0,42,0.00,CLR,OVC,0.01,WeatherDisplay:10.37,2013-05-25 02:18:00,
2013-05-24 22:19:00,58.0,34.4,30.22,NW,310,3.0,4.6,41,0.00,CLR,OVC,0.01,WeatherDisplay:10.37,2013-05-25 02:19:00,
2013-05-24 22:20:00,58.0,35.0,30.22,NW,310,1.8,4.6,42,0.00,CLR,OVC,0.01,WeatherDisplay:10.37,2013-05-25 02:20:00,
2013-05-24 22:21:00,57.8,36.0,30.22,NW,311,4.3,6.0,44,0.00,CLR,OVC,0.01,WeatherDisplay:10.37,2013-05-25 02:21:00,
2013-05-24 22:23:00,57.2,37.1,30.22,NW,314,5.0,5.8,47,0.00,CLR,OVC,0.01,WeatherDisplay:10.37,2013-05-25 02:23:00,
2013-05-24 22:25:00,56.9,36.3,30.22,NW,323,7.6,11.5,46,0.00,CLR,OVC,0.01,WeatherDisplay:10.37,2013-05-25 02:25:00,
2013-05-24 22:26:00,56.6,36.6,30.22,NW,325,5.0,11.5,47,0.00,CLR,OVC,0.01,WeatherDisplay:10.37,2013-05-25 02:26:00,
2013-05-24 22:28:00,56.2,36.2,30.22,NW,315,6.2,8.1,47,0.00,CLR,OVC,0.01,WeatherDisplay:10.37,2013-05-25 02:28:00,
2013-05-24 22:29:00,56.0,37.6,30.22,NW,320,5.1,6.9,50,0.00,CLR,OVC,0.01,WeatherDisplay:10.37,2013-05-25 02:29:00,
2013-05-24 22:30:00,56.0,37.1,30.22,NW,322,6.0,12.0,49,0.00,CLR,OVC,0.01,WeatherDisplay:10.37,2013-05-25 02:30:00,
2013-05-24 22:31:00,56.0,35.5,30.22,NNW,338,7.6,11.5,46,0.00,CLR,OVC,0.01,WeatherDisplay:10.37,2013-05-25 02:31:00,
2013-05-24 22:33:00,56.2,35.7,30.22,NW,325,7.0,11.0,46,0.00,CLR,OVC,0.01,WeatherDisplay:10.37,2013-05-25 02:33:00,
2013-05-24 22:35:00,56.3,35.8,30.22,NNW,335,5.3,9.2,46,0.00,CLR,OVC,0.01,WeatherDisplay:10.37,2013-05-25 02:35:00,
2013-05-24 22:36:00,56.3,35.8,30.22,NW,320,5.1,9.2,46,0.00,CLR,OVC,0.01,WeatherDisplay:10.37,2013-05-25 02:36:00,
2013-05-24 22:37:00,56.3,35.8,30.22,NW,320,6.0,8.0,46,0.00,CLR,OVC,0.01,WeatherDisplay:10.37,2013-05-25 02:37:00,
2013-05-24 22:38:00,56.3,35.2,30.22,NNW,340,5.3,10.4,45,0.00,CLR,OVC,0.01,WeatherDisplay:10.37,2013-05-25 02:38:00,
2013-05-24 22:39:00,56.5,35.4,30.22,NNW,338,6.6,9.0,45,0.00,CLR,OVC,0.01,WeatherDisplay:10.37,2013-05-25 02:39:00,
2013-05-24 22:41:00,56.5,35.4,30.23,NW,321,4.5,10.4,45,0.00,CLR,OVC,0.01,WeatherDisplay:10.37,2013-05-25 02:41:00,
2013-05-24 22:43:00,56.5,36.0,30.23,NNW,347,4.1,6.9,46,0.00,CLR,OVC,0.01,WeatherDisplay:10.37,2013-05-25 02:43:00,
2013-05-24 22:45:00,56.3,35.2,30.23,NNW,339,5.1,6.9,45,0.00,CLR,OVC,0.01,WeatherDisplay:10.37,2013-05-25 02:45:00,
2013-05-24 22:46:00,56.3,35.8,30.23,North,360,4.5,5.8,46,0.00,CLR,OVC,0.01,WeatherDisplay:10.37,2013-05-25 02:46:00,
2013-05-24 22:47:00,56.3,35.8,30.23,North,350,4.6,10.4,46,0.00,CLR,OVC,0.01,WeatherDisplay:10.37,2013-05-25 02:47:00,
2013-05-24 22:48:00,56.2,35.7,30.23,NNW,343,6.4,7.0,46,0.00,CLR,OVC,0.01,WeatherDisplay:10.37,2013-05-25 02:48:00,
2013-05-24 22:52:00,56.2,35.7,30.23,NW,325,6.1,10.4,46,0.00,CLR,OVC,0.01,WeatherDisplay:10.37,2013-05-25 02:52:00,
2013-05-24 22:53:00,56.2,35.7,30.23,NW,323,7.1,10.4,46,0.00,CLR,OVC,0.01,WeatherDisplay:10.37,2013-05-25 02:53:00,
2013-05-24 22:54:00,56.2,35.7,30.23,NNW,329,5.0,10.4,46,0.00,CLR,OVC,0.01,WeatherDisplay:10.37,2013-05-25 02:54:00,
2013-05-24 22:59:00,56.0,35.5,30.23,NNW,337,4.2,5.8,46,0.00,CLR,OVC,0.01,WeatherDisplay:10.37,2013-05-25 02:59:00,
2013-05-24 23:00:00,56.0,35.5,30.23,North,351,3.8,5.8,46,0.00,CLR,OVC,0.01,WeatherDisplay:10.37,2013-05-25 03:00:00,
2013-05-24 23:01:00,55.9,35.9,30.23,NNW,335,3.6,5.8,47,0.00,CLR,OVC,0.01,WeatherDisplay:10.37,2013-05-25 03:01:00,
2013-05-24 23:02:00,55.9,35.4,30.23,NW,325,3.2,6.9,46,0.00,CLR,OVC,0.01,WeatherDisplay:10.37,2013-05-25 03:02:00,
2013-05-24 23:04:00,55.9,35.9,30.24,NNW,347,2.9,7.0,47,0.00,CLR,OVC,0.01,WeatherDisplay:10.37,2013-05-25 03:04:00,
2013-05-24 23:05:00,55.9,38.0,30.24,NNW,347,1.2,6.9,51,0.00,CLR,OVC,0.01,WeatherDisplay:10.37,2013-05-25 03:05:00,
2013-05-24 23:07:00,55.7,35.8,30.24,North,351,1.2,0.0,47,0.00,CLR,OVC,0.01,WeatherDisplay:10.37,2013-05-25 03:07:00,
2013-05-24 23:09:00,55.6,35.7,30.24,North,351,1.2,4.0,47,0.00,CLR,OVC,0.01,WeatherDisplay:10.37,2013-05-25 03:09:00,
2013-05-24 23:11:00,55.6,35.7,30.24,North,351,3.1,10.4,47,0.00,CLR,OVC,0.01,WeatherDisplay:10.37,2013-05-25 03:11:00,
2013-05-24 23:13:00,55.6,35.7,30.23,North,351,2.2,3.5,47,0.00,CLR,OVC,0.01,WeatherDisplay:10.37,2013-05-25 03:13:00,
2013-05-24 23:14:00,55.6,35.1,30.23,NNE,18,2.9,4.6,46,0.00,CLR,OVC,0.01,WeatherDisplay:10.37,2013-05-25 03:14:00,
2013-05-24 23:16:00,55.6,35.7,30.23,North,11,1.7,3.5,47,0.00,CLR,OVC,0.01,WeatherDisplay:10.37,2013-05-25 03:16:00,
2013-05-24 23:19:00,55.4,35.5,30.23,North,9,0.1,2.3,47,0.00,CLR,OVC,0.01,WeatherDisplay:10.37,2013-05-25 03:19:00,
2013-05-24 23:20:00,55.4,35.5,30.23,North,9,2.4,3.5,47,0.00,CLR,OVC,0.01,WeatherDisplay:10.37,2013-05-25 03:20:00,
2013-05-24 23:21:00,55.4,35.5,30.24,North,9,0.9,4.6,47,0.00,CLR,OVC,0.01,WeatherDisplay:10.37,2013-05-25 03:21:00,
2013-05-24 23:23:00,55.3,35.9,30.24,NNW,336,2.6,7.0,48,0.00,CLR,OVC,0.01,WeatherDisplay:10.37,2013-05-25 03:23:00,
2013-05-24 23:25:00,55.3,35.4,30.24,North,349,5.3,7.0,47,0.00,CLR,OVC,0.01,WeatherDisplay:10.37,2013-05-25 03:25:00,
2013-05-24 23:26:00,55.3,35.9,30.24,North,360,2.4,7.0,48,0.00,CLR,OVC,0.01,WeatherDisplay:10.37,2013-05-25 03:26:00,
2013-05-24 23:27:00,55.3,35.9,30.24,North,360,1.3,3.5,48,0.00,CLR,OVC,0.01,WeatherDisplay:10.37,2013-05-25 03:27:00,
2013-05-24 23:30:00,55.0,35.7,30.24,North,360,3.6,4.6,48,0.00,CLR,OVC,0.01,WeatherDisplay:10.37,2013-05-25 03:30:00,
2013-05-24 23:33:00,54.8,36.0,30.24,North,360,2.9,5.0,49,0.00,CLR,OVC,0.01,WeatherDisplay:10.37,2013-05-25 03:33:00,
2013-05-24 23:35:00,54.8,36.0,30.24,North,360,1.8,7.0,49,0.00,CLR,OVC,0.01,WeatherDisplay:10.37,2013-05-25 03:35:00,
2013-05-24 23:37:00,54.7,35.4,30.24,North,360,3.3,5.8,48,0.00,CLR,OVC,0.01,WeatherDisplay:10.37,2013-05-25 03:37:00,
2013-05-24 23:38:00,54.7,35.4,30.24,North,351,4.9,9.2,48,0.00,CLR,OVC,0.01,WeatherDisplay:10.37,2013-05-25 03:38:00,
2013-05-24 23:40:00,54.7,35.4,30.24,North,360,3.4,6.9,48,0.00,CLR,OVC,0.01,WeatherDisplay:10.37,2013-05-25 03:40:00,
2013-05-24 23:43:00,54.7,35.4,30.24,NNW,347,3.4,8.1,48,0.00,CLR,OVC,0.01,WeatherDisplay:10.37,2013-05-25 03:43:00,
2013-05-24 23:46:00,54.7,35.9,30.24,NNW,346,3.5,5.0,49,0.00,CLR,OVC,0.01,WeatherDisplay:10.37,2013-05-25 03:46:00,
2013-05-24 23:47:00,54.5,35.2,30.24,North,351,5.1,9.2,48,0.00,CLR,OVC,0.01,WeatherDisplay:10.37,2013-05-25 03:47:00,
2013-05-24 23:48:00,54.5,35.2,30.24,North,351,1.6,8.1,48,0.00,CLR,OVC,0.01,WeatherDisplay:10.37,2013-05-25 03:48:00,
2013-05-24 23:49:00,54.5,35.7,30.23,North,351,2.8,5.8,49,0.00,CLR,OVC,0.01,WeatherDisplay:10.37,2013-05-25 03:49:00,
2013-05-24 23:53:00,54.5,35.2,30.23,NNW,336,4.4,6.9,48,0.00,CLR,OVC,0.01,WeatherDisplay:10.37,2013-05-25 03:53:00,
2013-05-24 23:54:00,54.5,35.2,30.23,NNW,333,5.2,9.2,48,0.00,CLR,OVC,0.01,WeatherDisplay:10.37,2013-05-25 03:54:00,
2013-05-24 23:55:00,54.5,35.2,30.23,NNW,333,4.7,6.9,48,0.00,CLR,OVC,0.01,WeatherDisplay:10.37,2013-05-25 03:55:00,
2013-05-24 23:58:00,54.4,35.6,30.23,NNW,334,5.2,5.8,49,0.00,CLR,OVC,0.01,WeatherDisplay:10.37,2013-05-25 03:58:00,
2013-05-24 23:59:00,54.5,35.2,30.23,NNW,333,3.6,10.4,48,0.00,CLR,OVC,0.01,WeatherDisplay:10.37,2013-05-25 03:59:00,